<?xml version="1.0" encoding="utf-8"?>
<gpx xmlns:xsi="http://www.w3.org/2001/XMLSchema-instance" xmlns:xsd="http://www.w3.org/2001/XMLSchema" version="1.1" creator="Shapelink.com" xmlns="http://www.topografix.com/GPX/1/1" xmlns:gpxtpx="http://www.garmin.com/xmlschemas/TrackPointExtension/v1">
  <metadata>
    <name>Gåing 1.50 km, 2013-04-18</name>
    <desc></desc>
    <author><name>Mikael Blom</name></author> 
    <time>2013-04-18T19:22:34Z</time>
  </metadata>
  <trk>
    <name>Gåing 1.50 km, 2013-04-18</name>
    <trkseg>
      <trkpt lat="59.9826347" lon="17.7381886">
        <ele>38.1094</ele>
        <time>2013-04-18T19:22:34Z</time>
      </trkpt>
      <trkpt lat="59.9826647" lon="17.7381632">
        <ele>38.5901</ele>
        <time>2013-04-18T19:22:35Z</time>
      </trkpt>
      <trkpt lat="59.9827523" lon="17.7381559">
        <ele>46.7612</ele>
        <time>2013-04-18T19:22:36Z</time>
      </trkpt>
      <trkpt lat="59.9827564" lon="17.7381639">
        <ele>45.7999</ele>
        <time>2013-04-18T19:22:37Z</time>
      </trkpt>
      <trkpt lat="59.9827745" lon="17.7381635">
        <ele>46.2806</ele>
        <time>2013-04-18T19:22:38Z</time>
      </trkpt>
      <trkpt lat="59.9827988" lon="17.7381577">
        <ele>47.7225</ele>
        <time>2013-04-18T19:22:39Z</time>
      </trkpt>
      <trkpt lat="59.9828155" lon="17.738155">
        <ele>47.7225</ele>
        <time>2013-04-18T19:22:40Z</time>
      </trkpt>
      <trkpt lat="59.9828287" lon="17.7381493">
        <ele>47.2418</ele>
        <time>2013-04-18T19:22:41Z</time>
      </trkpt>
      <trkpt lat="59.9828235" lon="17.7381559">
        <ele>44.8386</ele>
        <time>2013-04-18T19:22:42Z</time>
      </trkpt>
      <trkpt lat="59.9828371" lon="17.7381474">
        <ele>44.8386</ele>
        <time>2013-04-18T19:22:43Z</time>
      </trkpt>
      <trkpt lat="59.9828537" lon="17.738152">
        <ele>44.8386</ele>
        <time>2013-04-18T19:22:44Z</time>
      </trkpt>
      <trkpt lat="59.9828798" lon="17.7381552">
        <ele>47.2418</ele>
        <time>2013-04-18T19:22:45Z</time>
      </trkpt>
      <trkpt lat="59.9828921" lon="17.7381528">
        <ele>47.7225</ele>
        <time>2013-04-18T19:22:46Z</time>
      </trkpt>
      <trkpt lat="59.9829123" lon="17.738153">
        <ele>49.1646</ele>
        <time>2013-04-18T19:22:47Z</time>
      </trkpt>
      <trkpt lat="59.9829113" lon="17.7381484">
        <ele>47.7225</ele>
        <time>2013-04-18T19:22:48Z</time>
      </trkpt>
      <trkpt lat="59.9829284" lon="17.7381468">
        <ele>48.2034</ele>
        <time>2013-04-18T19:22:49Z</time>
      </trkpt>
      <trkpt lat="59.9829394" lon="17.7381478">
        <ele>48.2034</ele>
        <time>2013-04-18T19:22:50Z</time>
      </trkpt>
      <trkpt lat="59.9829496" lon="17.7381474">
        <ele>47.7225</ele>
        <time>2013-04-18T19:22:51Z</time>
      </trkpt>
      <trkpt lat="59.9829703" lon="17.7381515">
        <ele>48.2034</ele>
        <time>2013-04-18T19:22:52Z</time>
      </trkpt>
      <trkpt lat="59.9829915" lon="17.7381513">
        <ele>48.684</ele>
        <time>2013-04-18T19:22:53Z</time>
      </trkpt>
      <trkpt lat="59.9830048" lon="17.7381562">
        <ele>48.2034</ele>
        <time>2013-04-18T19:22:54Z</time>
      </trkpt>
      <trkpt lat="59.983023" lon="17.7381634">
        <ele>47.7225</ele>
        <time>2013-04-18T19:22:55Z</time>
      </trkpt>
      <trkpt lat="59.9830392" lon="17.738165">
        <ele>48.2034</ele>
        <time>2013-04-18T19:22:56Z</time>
      </trkpt>
      <trkpt lat="59.9830433" lon="17.7381619">
        <ele>48.2034</ele>
        <time>2013-04-18T19:22:57Z</time>
      </trkpt>
      <trkpt lat="59.9830556" lon="17.7381567">
        <ele>48.2034</ele>
        <time>2013-04-18T19:22:58Z</time>
      </trkpt>
      <trkpt lat="59.9830739" lon="17.7381556">
        <ele>48.2034</ele>
        <time>2013-04-18T19:22:59Z</time>
      </trkpt>
      <trkpt lat="59.9830898" lon="17.7381576">
        <ele>48.2034</ele>
        <time>2013-04-18T19:23:00Z</time>
      </trkpt>
      <trkpt lat="59.9831117" lon="17.7381644">
        <ele>48.684</ele>
        <time>2013-04-18T19:23:01Z</time>
      </trkpt>
      <trkpt lat="59.9831205" lon="17.7381547">
        <ele>48.2034</ele>
        <time>2013-04-18T19:23:02Z</time>
      </trkpt>
      <trkpt lat="59.9831253" lon="17.738143">
        <ele>46.7612</ele>
        <time>2013-04-18T19:23:03Z</time>
      </trkpt>
      <trkpt lat="59.9831426" lon="17.738127">
        <ele>46.7612</ele>
        <time>2013-04-18T19:23:04Z</time>
      </trkpt>
      <trkpt lat="59.9831716" lon="17.7381225">
        <ele>48.684</ele>
        <time>2013-04-18T19:23:05Z</time>
      </trkpt>
      <trkpt lat="59.9831865" lon="17.7381163">
        <ele>49.6453</ele>
        <time>2013-04-18T19:23:06Z</time>
      </trkpt>
      <trkpt lat="59.9832002" lon="17.7381116">
        <ele>50.6066</ele>
        <time>2013-04-18T19:23:07Z</time>
      </trkpt>
      <trkpt lat="59.9832174" lon="17.7380945">
        <ele>52.5292</ele>
        <time>2013-04-18T19:23:08Z</time>
      </trkpt>
      <trkpt lat="59.9832283" lon="17.7380834">
        <ele>53.0098</ele>
        <time>2013-04-18T19:23:09Z</time>
      </trkpt>
      <trkpt lat="59.9832341" lon="17.7380803">
        <ele>52.5292</ele>
        <time>2013-04-18T19:23:10Z</time>
      </trkpt>
      <trkpt lat="59.9832522" lon="17.7380759">
        <ele>53.0098</ele>
        <time>2013-04-18T19:23:11Z</time>
      </trkpt>
      <trkpt lat="59.983261" lon="17.7380656">
        <ele>52.5292</ele>
        <time>2013-04-18T19:23:12Z</time>
      </trkpt>
      <trkpt lat="59.9832805" lon="17.738051">
        <ele>53.0098</ele>
        <time>2013-04-18T19:23:13Z</time>
      </trkpt>
      <trkpt lat="59.9832873" lon="17.7380444">
        <ele>52.0486</ele>
        <time>2013-04-18T19:23:14Z</time>
      </trkpt>
      <trkpt lat="59.983302" lon="17.7380387">
        <ele>52.0486</ele>
        <time>2013-04-18T19:23:15Z</time>
      </trkpt>
      <trkpt lat="59.9833117" lon="17.7380324">
        <ele>51.0872</ele>
        <time>2013-04-18T19:23:16Z</time>
      </trkpt>
      <trkpt lat="59.9833195" lon="17.7380349">
        <ele>50.126</ele>
        <time>2013-04-18T19:23:17Z</time>
      </trkpt>
      <trkpt lat="59.9833185" lon="17.7380444">
        <ele>48.2034</ele>
        <time>2013-04-18T19:23:18Z</time>
      </trkpt>
      <trkpt lat="59.9833148" lon="17.7380575">
        <ele>46.2806</ele>
        <time>2013-04-18T19:23:19Z</time>
      </trkpt>
      <trkpt lat="59.9833247" lon="17.738063">
        <ele>45.7999</ele>
        <time>2013-04-18T19:23:20Z</time>
      </trkpt>
      <trkpt lat="59.9833381" lon="17.7380536">
        <ele>45.7999</ele>
        <time>2013-04-18T19:23:21Z</time>
      </trkpt>
      <trkpt lat="59.9833464" lon="17.7380524">
        <ele>45.3192</ele>
        <time>2013-04-18T19:23:22Z</time>
      </trkpt>
      <trkpt lat="59.9833646" lon="17.7380524">
        <ele>45.3192</ele>
        <time>2013-04-18T19:23:23Z</time>
      </trkpt>
      <trkpt lat="59.9833833" lon="17.73805">
        <ele>45.3192</ele>
        <time>2013-04-18T19:23:24Z</time>
      </trkpt>
      <trkpt lat="59.9833999" lon="17.7380293">
        <ele>45.3192</ele>
        <time>2013-04-18T19:23:25Z</time>
      </trkpt>
      <trkpt lat="59.9834187" lon="17.7380301">
        <ele>46.2806</ele>
        <time>2013-04-18T19:23:26Z</time>
      </trkpt>
      <trkpt lat="59.9834412" lon="17.7380285">
        <ele>47.2418</ele>
        <time>2013-04-18T19:23:27Z</time>
      </trkpt>
      <trkpt lat="59.9834707" lon="17.7380268">
        <ele>48.684</ele>
        <time>2013-04-18T19:23:28Z</time>
      </trkpt>
      <trkpt lat="59.9834938" lon="17.7380264">
        <ele>49.1646</ele>
        <time>2013-04-18T19:23:29Z</time>
      </trkpt>
      <trkpt lat="59.9835141" lon="17.7380273">
        <ele>50.126</ele>
        <time>2013-04-18T19:23:30Z</time>
      </trkpt>
      <trkpt lat="59.9835255" lon="17.7380334">
        <ele>50.6066</ele>
        <time>2013-04-18T19:23:31Z</time>
      </trkpt>
      <trkpt lat="59.9835342" lon="17.7380276">
        <ele>50.126</ele>
        <time>2013-04-18T19:23:32Z</time>
      </trkpt>
      <trkpt lat="59.9835504" lon="17.7380226">
        <ele>49.6453</ele>
        <time>2013-04-18T19:23:33Z</time>
      </trkpt>
      <trkpt lat="59.9835723" lon="17.7380122">
        <ele>50.126</ele>
        <time>2013-04-18T19:23:34Z</time>
      </trkpt>
      <trkpt lat="59.9836023" lon="17.7380142">
        <ele>51.5679</ele>
        <time>2013-04-18T19:23:35Z</time>
      </trkpt>
      <trkpt lat="59.9836202" lon="17.738021">
        <ele>52.0486</ele>
        <time>2013-04-18T19:23:36Z</time>
      </trkpt>
      <trkpt lat="59.9836448" lon="17.7380184">
        <ele>53.0098</ele>
        <time>2013-04-18T19:23:37Z</time>
      </trkpt>
      <trkpt lat="59.9836751" lon="17.7380195">
        <ele>54.9324</ele>
        <time>2013-04-18T19:23:38Z</time>
      </trkpt>
      <trkpt lat="59.983707" lon="17.7380267">
        <ele>56.8551</ele>
        <time>2013-04-18T19:23:39Z</time>
      </trkpt>
      <trkpt lat="59.9837319" lon="17.7380213">
        <ele>57.8165</ele>
        <time>2013-04-18T19:23:40Z</time>
      </trkpt>
      <trkpt lat="59.9837541" lon="17.7380111">
        <ele>58.7777</ele>
        <time>2013-04-18T19:23:41Z</time>
      </trkpt>
      <trkpt lat="59.9837813" lon="17.7380023">
        <ele>59.7391</ele>
        <time>2013-04-18T19:23:42Z</time>
      </trkpt>
      <trkpt lat="59.9838096" lon="17.7379857">
        <ele>60.7003</ele>
        <time>2013-04-18T19:23:43Z</time>
      </trkpt>
      <trkpt lat="59.9838409" lon="17.7379786">
        <ele>62.1423</ele>
        <time>2013-04-18T19:23:44Z</time>
      </trkpt>
      <trkpt lat="59.9838598" lon="17.7379733">
        <ele>62.6229</ele>
        <time>2013-04-18T19:23:45Z</time>
      </trkpt>
      <trkpt lat="59.9838727" lon="17.7379742">
        <ele>62.6229</ele>
        <time>2013-04-18T19:23:46Z</time>
      </trkpt>
      <trkpt lat="59.9838943" lon="17.7379689">
        <ele>63.5844</ele>
        <time>2013-04-18T19:23:47Z</time>
      </trkpt>
      <trkpt lat="59.9839146" lon="17.7379635">
        <ele>64.5457</ele>
        <time>2013-04-18T19:23:48Z</time>
      </trkpt>
      <trkpt lat="59.9839355" lon="17.737951">
        <ele>65.5071</ele>
        <time>2013-04-18T19:23:49Z</time>
      </trkpt>
      <trkpt lat="59.9839479" lon="17.737942">
        <ele>65.0264</ele>
        <time>2013-04-18T19:23:50Z</time>
      </trkpt>
      <trkpt lat="59.9839745" lon="17.7379364">
        <ele>67.4297</ele>
        <time>2013-04-18T19:23:51Z</time>
      </trkpt>
      <trkpt lat="59.9840098" lon="17.7379427">
        <ele>70.7942</ele>
        <time>2013-04-18T19:23:52Z</time>
      </trkpt>
      <trkpt lat="59.9840301" lon="17.7379504">
        <ele>71.7555</ele>
        <time>2013-04-18T19:23:53Z</time>
      </trkpt>
      <trkpt lat="59.984055" lon="17.7379515">
        <ele>73.6782</ele>
        <time>2013-04-18T19:23:54Z</time>
      </trkpt>
      <trkpt lat="59.9840781" lon="17.7379556">
        <ele>75.1202</ele>
        <time>2013-04-18T19:23:55Z</time>
      </trkpt>
      <trkpt lat="59.9840949" lon="17.7379448">
        <ele>75.6008</ele>
        <time>2013-04-18T19:23:56Z</time>
      </trkpt>
      <trkpt lat="59.9841135" lon="17.7379426">
        <ele>76.0814</ele>
        <time>2013-04-18T19:23:57Z</time>
      </trkpt>
      <trkpt lat="59.9841253" lon="17.7379433">
        <ele>76.0814</ele>
        <time>2013-04-18T19:23:58Z</time>
      </trkpt>
      <trkpt lat="59.9841318" lon="17.7379407">
        <ele>75.6008</ele>
        <time>2013-04-18T19:23:59Z</time>
      </trkpt>
      <trkpt lat="59.9841385" lon="17.7379327">
        <ele>74.1588</ele>
        <time>2013-04-18T19:24:00Z</time>
      </trkpt>
      <trkpt lat="59.9841574" lon="17.7379189">
        <ele>74.6395</ele>
        <time>2013-04-18T19:24:01Z</time>
      </trkpt>
      <trkpt lat="59.9841803" lon="17.7379132">
        <ele>75.6008</ele>
        <time>2013-04-18T19:24:02Z</time>
      </trkpt>
      <trkpt lat="59.9841991" lon="17.737908">
        <ele>75.6008</ele>
        <time>2013-04-18T19:24:03Z</time>
      </trkpt>
      <trkpt lat="59.9842116" lon="17.7379117">
        <ele>75.6008</ele>
        <time>2013-04-18T19:24:04Z</time>
      </trkpt>
      <trkpt lat="59.9842156" lon="17.7379117">
        <ele>74.1588</ele>
        <time>2013-04-18T19:24:05Z</time>
      </trkpt>
      <trkpt lat="59.9842263" lon="17.7379149">
        <ele>73.6782</ele>
        <time>2013-04-18T19:24:06Z</time>
      </trkpt>
      <trkpt lat="59.9842358" lon="17.7379161">
        <ele>73.1976</ele>
        <time>2013-04-18T19:24:07Z</time>
      </trkpt>
      <trkpt lat="59.9842351" lon="17.7379234">
        <ele>71.7555</ele>
        <time>2013-04-18T19:24:08Z</time>
      </trkpt>
      <trkpt lat="59.9842379" lon="17.7379288">
        <ele>70.3135</ele>
        <time>2013-04-18T19:24:09Z</time>
      </trkpt>
      <trkpt lat="59.9842616" lon="17.7379231">
        <ele>71.2749</ele>
        <time>2013-04-18T19:24:10Z</time>
      </trkpt>
      <trkpt lat="59.9842767" lon="17.7379193">
        <ele>71.2749</ele>
        <time>2013-04-18T19:24:11Z</time>
      </trkpt>
      <trkpt lat="59.9842856" lon="17.7379376">
        <ele>71.2749</ele>
        <time>2013-04-18T19:24:12Z</time>
      </trkpt>
      <trkpt lat="59.9842949" lon="17.7379443">
        <ele>71.2749</ele>
        <time>2013-04-18T19:24:13Z</time>
      </trkpt>
      <trkpt lat="59.9843047" lon="17.7379438">
        <ele>70.7942</ele>
        <time>2013-04-18T19:24:14Z</time>
      </trkpt>
      <trkpt lat="59.9843085" lon="17.7379416">
        <ele>69.3523</ele>
        <time>2013-04-18T19:24:15Z</time>
      </trkpt>
      <trkpt lat="59.984301" lon="17.7379407">
        <ele>67.4297</ele>
        <time>2013-04-18T19:24:16Z</time>
      </trkpt>
      <trkpt lat="59.9842967" lon="17.7379406">
        <ele>65.5071</ele>
        <time>2013-04-18T19:24:17Z</time>
      </trkpt>
      <trkpt lat="59.9842919" lon="17.7379452">
        <ele>63.5844</ele>
        <time>2013-04-18T19:24:18Z</time>
      </trkpt>
      <trkpt lat="59.9842897" lon="17.737948">
        <ele>61.6617</ele>
        <time>2013-04-18T19:24:19Z</time>
      </trkpt>
      <trkpt lat="59.9842976" lon="17.7379505">
        <ele>60.7003</ele>
        <time>2013-04-18T19:24:20Z</time>
      </trkpt>
      <trkpt lat="59.9842991" lon="17.7379527">
        <ele>59.2584</ele>
        <time>2013-04-18T19:24:21Z</time>
      </trkpt>
      <trkpt lat="59.9843196" lon="17.7379517">
        <ele>59.7391</ele>
        <time>2013-04-18T19:24:22Z</time>
      </trkpt>
      <trkpt lat="59.9843361" lon="17.7379525">
        <ele>60.2197</ele>
        <time>2013-04-18T19:24:23Z</time>
      </trkpt>
      <trkpt lat="59.9843363" lon="17.7379557">
        <ele>58.7777</ele>
        <time>2013-04-18T19:24:24Z</time>
      </trkpt>
      <trkpt lat="59.9843446" lon="17.7379597">
        <ele>59.2584</ele>
        <time>2013-04-18T19:24:25Z</time>
      </trkpt>
      <trkpt lat="59.9843737" lon="17.7379765">
        <ele>62.1423</ele>
        <time>2013-04-18T19:24:26Z</time>
      </trkpt>
      <trkpt lat="59.9844031" lon="17.7379868">
        <ele>64.5457</ele>
        <time>2013-04-18T19:24:27Z</time>
      </trkpt>
      <trkpt lat="59.9844202" lon="17.7379889">
        <ele>65.0264</ele>
        <time>2013-04-18T19:24:28Z</time>
      </trkpt>
      <trkpt lat="59.984452" lon="17.7379925">
        <ele>67.9103</ele>
        <time>2013-04-18T19:24:29Z</time>
      </trkpt>
      <trkpt lat="59.9844608" lon="17.7379914">
        <ele>67.4297</ele>
        <time>2013-04-18T19:24:30Z</time>
      </trkpt>
      <trkpt lat="59.9844809" lon="17.7379907">
        <ele>68.3909</ele>
        <time>2013-04-18T19:24:31Z</time>
      </trkpt>
      <trkpt lat="59.9844953" lon="17.7379971">
        <ele>68.8716</ele>
        <time>2013-04-18T19:24:32Z</time>
      </trkpt>
      <trkpt lat="59.984502" lon="17.7379977">
        <ele>68.8716</ele>
        <time>2013-04-18T19:24:33Z</time>
      </trkpt>
      <trkpt lat="59.9845208" lon="17.7379975">
        <ele>69.8329</ele>
        <time>2013-04-18T19:24:34Z</time>
      </trkpt>
      <trkpt lat="59.9845332" lon="17.7380141">
        <ele>68.8716</ele>
        <time>2013-04-18T19:24:35Z</time>
      </trkpt>
      <trkpt lat="59.9845482" lon="17.7380228">
        <ele>68.3909</ele>
        <time>2013-04-18T19:24:36Z</time>
      </trkpt>
      <trkpt lat="59.9845584" lon="17.7380308">
        <ele>67.4297</ele>
        <time>2013-04-18T19:24:37Z</time>
      </trkpt>
      <trkpt lat="59.9845721" lon="17.738043">
        <ele>67.4297</ele>
        <time>2013-04-18T19:24:38Z</time>
      </trkpt>
      <trkpt lat="59.9845869" lon="17.7380462">
        <ele>66.949</ele>
        <time>2013-04-18T19:24:39Z</time>
      </trkpt>
      <trkpt lat="59.9846098" lon="17.7380458">
        <ele>67.9103</ele>
        <time>2013-04-18T19:24:40Z</time>
      </trkpt>
      <trkpt lat="59.9846275" lon="17.7380446">
        <ele>67.9103</ele>
        <time>2013-04-18T19:24:41Z</time>
      </trkpt>
      <trkpt lat="59.9846394" lon="17.7380448">
        <ele>67.4297</ele>
        <time>2013-04-18T19:24:42Z</time>
      </trkpt>
      <trkpt lat="59.984678" lon="17.7380526">
        <ele>69.8329</ele>
        <time>2013-04-18T19:24:43Z</time>
      </trkpt>
      <trkpt lat="59.9847071" lon="17.7380411">
        <ele>70.7942</ele>
        <time>2013-04-18T19:24:44Z</time>
      </trkpt>
      <trkpt lat="59.984707" lon="17.7380406">
        <ele>68.8716</ele>
        <time>2013-04-18T19:24:45Z</time>
      </trkpt>
      <trkpt lat="59.984711" lon="17.7380386">
        <ele>67.4297</ele>
        <time>2013-04-18T19:24:46Z</time>
      </trkpt>
      <trkpt lat="59.9847093" lon="17.7380421">
        <ele>65.0264</ele>
        <time>2013-04-18T19:24:47Z</time>
      </trkpt>
      <trkpt lat="59.9847135" lon="17.7380439">
        <ele>64.0651</ele>
        <time>2013-04-18T19:24:48Z</time>
      </trkpt>
      <trkpt lat="59.984715" lon="17.7380463">
        <ele>62.6229</ele>
        <time>2013-04-18T19:24:49Z</time>
      </trkpt>
      <trkpt lat="59.9847269" lon="17.7380529">
        <ele>62.1423</ele>
        <time>2013-04-18T19:24:50Z</time>
      </trkpt>
      <trkpt lat="59.9847438" lon="17.7380638">
        <ele>62.1423</ele>
        <time>2013-04-18T19:24:51Z</time>
      </trkpt>
      <trkpt lat="59.9847735" lon="17.7380669">
        <ele>65.0264</ele>
        <time>2013-04-18T19:24:52Z</time>
      </trkpt>
      <trkpt lat="59.9847906" lon="17.7380721">
        <ele>65.9877</ele>
        <time>2013-04-18T19:24:53Z</time>
      </trkpt>
      <trkpt lat="59.9847961" lon="17.7380842">
        <ele>64.5457</ele>
        <time>2013-04-18T19:24:54Z</time>
      </trkpt>
      <trkpt lat="59.9848119" lon="17.7380811">
        <ele>64.5457</ele>
        <time>2013-04-18T19:24:55Z</time>
      </trkpt>
      <trkpt lat="59.9848155" lon="17.7380882">
        <ele>63.1036</ele>
        <time>2013-04-18T19:24:56Z</time>
      </trkpt>
      <trkpt lat="59.9848264" lon="17.7380966">
        <ele>63.1036</ele>
        <time>2013-04-18T19:24:57Z</time>
      </trkpt>
      <trkpt lat="59.9848339" lon="17.7381094">
        <ele>62.1423</ele>
        <time>2013-04-18T19:24:58Z</time>
      </trkpt>
      <trkpt lat="59.9848466" lon="17.73812">
        <ele>61.6617</ele>
        <time>2013-04-18T19:24:59Z</time>
      </trkpt>
      <trkpt lat="59.984862" lon="17.7381261">
        <ele>62.1423</ele>
        <time>2013-04-18T19:25:00Z</time>
      </trkpt>
      <trkpt lat="59.9848553" lon="17.7381379">
        <ele>59.7391</ele>
        <time>2013-04-18T19:25:01Z</time>
      </trkpt>
      <trkpt lat="59.9848409" lon="17.7381513">
        <ele>56.8551</ele>
        <time>2013-04-18T19:25:02Z</time>
      </trkpt>
      <trkpt lat="59.984844" lon="17.7381646">
        <ele>55.8938</ele>
        <time>2013-04-18T19:25:03Z</time>
      </trkpt>
      <trkpt lat="59.9848651" lon="17.7381619">
        <ele>56.8551</ele>
        <time>2013-04-18T19:25:04Z</time>
      </trkpt>
      <trkpt lat="59.9848849" lon="17.7381622">
        <ele>57.8165</ele>
        <time>2013-04-18T19:25:05Z</time>
      </trkpt>
      <trkpt lat="59.9848958" lon="17.738166">
        <ele>57.3358</ele>
        <time>2013-04-18T19:25:06Z</time>
      </trkpt>
      <trkpt lat="59.9849051" lon="17.7381738">
        <ele>57.3358</ele>
        <time>2013-04-18T19:25:07Z</time>
      </trkpt>
      <trkpt lat="59.9849103" lon="17.7381841">
        <ele>56.3745</ele>
        <time>2013-04-18T19:25:08Z</time>
      </trkpt>
      <trkpt lat="59.9849223" lon="17.7381927">
        <ele>56.3745</ele>
        <time>2013-04-18T19:25:09Z</time>
      </trkpt>
      <trkpt lat="59.9849233" lon="17.7382006">
        <ele>54.9324</ele>
        <time>2013-04-18T19:25:10Z</time>
      </trkpt>
      <trkpt lat="59.9849423" lon="17.7382016">
        <ele>54.9324</ele>
        <time>2013-04-18T19:25:11Z</time>
      </trkpt>
      <trkpt lat="59.9849667" lon="17.7381954">
        <ele>55.8938</ele>
        <time>2013-04-18T19:25:12Z</time>
      </trkpt>
      <trkpt lat="59.9849801" lon="17.7381908">
        <ele>54.9324</ele>
        <time>2013-04-18T19:25:13Z</time>
      </trkpt>
      <trkpt lat="59.9849848" lon="17.7381886">
        <ele>53.9712</ele>
        <time>2013-04-18T19:25:14Z</time>
      </trkpt>
      <trkpt lat="59.9849858" lon="17.7381936">
        <ele>52.5292</ele>
        <time>2013-04-18T19:25:15Z</time>
      </trkpt>
      <trkpt lat="59.9849802" lon="17.738211">
        <ele>51.0872</ele>
        <time>2013-04-18T19:25:16Z</time>
      </trkpt>
      <trkpt lat="59.9849874" lon="17.7382209">
        <ele>50.6066</ele>
        <time>2013-04-18T19:25:17Z</time>
      </trkpt>
      <trkpt lat="59.9849946" lon="17.7382214">
        <ele>50.6066</ele>
        <time>2013-04-18T19:25:18Z</time>
      </trkpt>
      <trkpt lat="59.9849871" lon="17.7382236">
        <ele>48.684</ele>
        <time>2013-04-18T19:25:19Z</time>
      </trkpt>
      <trkpt lat="59.9849935" lon="17.7382236">
        <ele>48.2034</ele>
        <time>2013-04-18T19:25:20Z</time>
      </trkpt>
      <trkpt lat="59.9850165" lon="17.7382243">
        <ele>49.1646</ele>
        <time>2013-04-18T19:25:21Z</time>
      </trkpt>
      <trkpt lat="59.9850404" lon="17.7382171">
        <ele>50.126</ele>
        <time>2013-04-18T19:25:22Z</time>
      </trkpt>
      <trkpt lat="59.9850714" lon="17.7382107">
        <ele>52.0486</ele>
        <time>2013-04-18T19:25:23Z</time>
      </trkpt>
      <trkpt lat="59.9850978" lon="17.7382063">
        <ele>53.4905</ele>
        <time>2013-04-18T19:25:24Z</time>
      </trkpt>
      <trkpt lat="59.9851205" lon="17.7382016">
        <ele>54.4518</ele>
        <time>2013-04-18T19:25:25Z</time>
      </trkpt>
      <trkpt lat="59.9851443" lon="17.7381935">
        <ele>55.8938</ele>
        <time>2013-04-18T19:25:26Z</time>
      </trkpt>
      <trkpt lat="59.9851527" lon="17.7381915">
        <ele>55.4131</ele>
        <time>2013-04-18T19:25:27Z</time>
      </trkpt>
      <trkpt lat="59.9851723" lon="17.7381929">
        <ele>55.8938</ele>
        <time>2013-04-18T19:25:28Z</time>
      </trkpt>
      <trkpt lat="59.9851925" lon="17.7381936">
        <ele>56.8551</ele>
        <time>2013-04-18T19:25:29Z</time>
      </trkpt>
      <trkpt lat="59.9852064" lon="17.7381929">
        <ele>55.8938</ele>
        <time>2013-04-18T19:25:30Z</time>
      </trkpt>
      <trkpt lat="59.9852258" lon="17.7381953">
        <ele>56.3745</ele>
        <time>2013-04-18T19:25:31Z</time>
      </trkpt>
      <trkpt lat="59.9852442" lon="17.7382007">
        <ele>56.8551</ele>
        <time>2013-04-18T19:25:32Z</time>
      </trkpt>
      <trkpt lat="59.9852526" lon="17.7382079">
        <ele>55.8938</ele>
        <time>2013-04-18T19:25:33Z</time>
      </trkpt>
      <trkpt lat="59.9852585" lon="17.7382111">
        <ele>55.4131</ele>
        <time>2013-04-18T19:25:34Z</time>
      </trkpt>
      <trkpt lat="59.9852709" lon="17.7382137">
        <ele>55.4131</ele>
        <time>2013-04-18T19:25:35Z</time>
      </trkpt>
      <trkpt lat="59.9852818" lon="17.7382235">
        <ele>55.4131</ele>
        <time>2013-04-18T19:25:36Z</time>
      </trkpt>
      <trkpt lat="59.9852867" lon="17.7382331">
        <ele>54.9324</ele>
        <time>2013-04-18T19:25:37Z</time>
      </trkpt>
      <trkpt lat="59.9852865" lon="17.7382395">
        <ele>53.4905</ele>
        <time>2013-04-18T19:25:38Z</time>
      </trkpt>
      <trkpt lat="59.9852898" lon="17.7382484">
        <ele>53.0098</ele>
        <time>2013-04-18T19:25:39Z</time>
      </trkpt>
      <trkpt lat="59.9853071" lon="17.7382542">
        <ele>53.4905</ele>
        <time>2013-04-18T19:25:40Z</time>
      </trkpt>
      <trkpt lat="59.9853283" lon="17.73825">
        <ele>54.4518</ele>
        <time>2013-04-18T19:25:41Z</time>
      </trkpt>
      <trkpt lat="59.9853547" lon="17.7382464">
        <ele>55.8938</ele>
        <time>2013-04-18T19:25:42Z</time>
      </trkpt>
      <trkpt lat="59.9853672" lon="17.738251">
        <ele>55.4131</ele>
        <time>2013-04-18T19:25:43Z</time>
      </trkpt>
      <trkpt lat="59.9853786" lon="17.7382528">
        <ele>54.9324</ele>
        <time>2013-04-18T19:25:44Z</time>
      </trkpt>
      <trkpt lat="59.9853883" lon="17.7382608">
        <ele>54.4518</ele>
        <time>2013-04-18T19:25:45Z</time>
      </trkpt>
      <trkpt lat="59.9854027" lon="17.7382678">
        <ele>54.9324</ele>
        <time>2013-04-18T19:25:46Z</time>
      </trkpt>
      <trkpt lat="59.9854113" lon="17.7382722">
        <ele>53.9712</ele>
        <time>2013-04-18T19:25:47Z</time>
      </trkpt>
      <trkpt lat="59.9854221" lon="17.7382716">
        <ele>53.9712</ele>
        <time>2013-04-18T19:25:48Z</time>
      </trkpt>
      <trkpt lat="59.9854355" lon="17.7382701">
        <ele>53.9712</ele>
        <time>2013-04-18T19:25:49Z</time>
      </trkpt>
      <trkpt lat="59.9854465" lon="17.7382792">
        <ele>53.4905</ele>
        <time>2013-04-18T19:25:50Z</time>
      </trkpt>
      <trkpt lat="59.9854504" lon="17.7382901">
        <ele>52.5292</ele>
        <time>2013-04-18T19:25:51Z</time>
      </trkpt>
      <trkpt lat="59.9854618" lon="17.7382914">
        <ele>52.0486</ele>
        <time>2013-04-18T19:25:52Z</time>
      </trkpt>
      <trkpt lat="59.9854847" lon="17.7382939">
        <ele>52.5292</ele>
        <time>2013-04-18T19:25:53Z</time>
      </trkpt>
      <trkpt lat="59.9855051" lon="17.7383037">
        <ele>52.5292</ele>
        <time>2013-04-18T19:25:54Z</time>
      </trkpt>
      <trkpt lat="59.9855309" lon="17.7383106">
        <ele>53.4905</ele>
        <time>2013-04-18T19:25:55Z</time>
      </trkpt>
      <trkpt lat="59.9855464" lon="17.7383209">
        <ele>53.0098</ele>
        <time>2013-04-18T19:25:56Z</time>
      </trkpt>
      <trkpt lat="59.9855639" lon="17.738322">
        <ele>53.4905</ele>
        <time>2013-04-18T19:25:57Z</time>
      </trkpt>
      <trkpt lat="59.9855626" lon="17.738331">
        <ele>52.5292</ele>
        <time>2013-04-18T19:25:58Z</time>
      </trkpt>
      <trkpt lat="59.9855521" lon="17.7383603">
        <ele>51.0872</ele>
        <time>2013-04-18T19:25:59Z</time>
      </trkpt>
      <trkpt lat="59.9855584" lon="17.7383797">
        <ele>50.6066</ele>
        <time>2013-04-18T19:26:00Z</time>
      </trkpt>
      <trkpt lat="59.9855489" lon="17.7384095">
        <ele>48.684</ele>
        <time>2013-04-18T19:26:01Z</time>
      </trkpt>
      <trkpt lat="59.9855552" lon="17.7384209">
        <ele>47.7225</ele>
        <time>2013-04-18T19:26:02Z</time>
      </trkpt>
      <trkpt lat="59.9855622" lon="17.738424">
        <ele>46.7612</ele>
        <time>2013-04-18T19:26:03Z</time>
      </trkpt>
      <trkpt lat="59.9855674" lon="17.7384301">
        <ele>45.3192</ele>
        <time>2013-04-18T19:26:04Z</time>
      </trkpt>
      <trkpt lat="59.985592" lon="17.7384255">
        <ele>46.2806</ele>
        <time>2013-04-18T19:26:05Z</time>
      </trkpt>
      <trkpt lat="59.9855976" lon="17.7384364">
        <ele>44.8386</ele>
        <time>2013-04-18T19:26:06Z</time>
      </trkpt>
      <trkpt lat="59.9856064" lon="17.7384524">
        <ele>43.8773</ele>
        <time>2013-04-18T19:26:07Z</time>
      </trkpt>
      <trkpt lat="59.9856293" lon="17.7384499">
        <ele>44.358</ele>
        <time>2013-04-18T19:26:08Z</time>
      </trkpt>
      <trkpt lat="59.9856288" lon="17.7384653">
        <ele>42.916</ele>
        <time>2013-04-18T19:26:09Z</time>
      </trkpt>
      <trkpt lat="59.9856449" lon="17.7384747">
        <ele>42.916</ele>
        <time>2013-04-18T19:26:10Z</time>
      </trkpt>
      <trkpt lat="59.9856643" lon="17.7384774">
        <ele>42.916</ele>
        <time>2013-04-18T19:26:11Z</time>
      </trkpt>
      <trkpt lat="59.9856757" lon="17.7384872">
        <ele>41.9547</ele>
        <time>2013-04-18T19:26:12Z</time>
      </trkpt>
      <trkpt lat="59.9856972" lon="17.7384807">
        <ele>41.9547</ele>
        <time>2013-04-18T19:26:13Z</time>
      </trkpt>
      <trkpt lat="59.9857152" lon="17.7384836">
        <ele>41.9547</ele>
        <time>2013-04-18T19:26:14Z</time>
      </trkpt>
      <trkpt lat="59.9857332" lon="17.7384878">
        <ele>42.4354</ele>
        <time>2013-04-18T19:26:15Z</time>
      </trkpt>
      <trkpt lat="59.9857459" lon="17.7385015">
        <ele>41.9547</ele>
        <time>2013-04-18T19:26:16Z</time>
      </trkpt>
      <trkpt lat="59.9857526" lon="17.7385123">
        <ele>41.474</ele>
        <time>2013-04-18T19:26:17Z</time>
      </trkpt>
      <trkpt lat="59.9857557" lon="17.7385302">
        <ele>40.5128</ele>
        <time>2013-04-18T19:26:18Z</time>
      </trkpt>
      <trkpt lat="59.9857623" lon="17.7385514">
        <ele>40.0321</ele>
        <time>2013-04-18T19:26:19Z</time>
      </trkpt>
      <trkpt lat="59.9857689" lon="17.7385763">
        <ele>40.0321</ele>
        <time>2013-04-18T19:26:20Z</time>
      </trkpt>
      <trkpt lat="59.9857805" lon="17.7385876">
        <ele>40.5128</ele>
        <time>2013-04-18T19:26:21Z</time>
      </trkpt>
      <trkpt lat="59.9857922" lon="17.7386095">
        <ele>40.9934</ele>
        <time>2013-04-18T19:26:22Z</time>
      </trkpt>
      <trkpt lat="59.985799" lon="17.738627">
        <ele>40.5128</ele>
        <time>2013-04-18T19:26:23Z</time>
      </trkpt>
      <trkpt lat="59.9858178" lon="17.7386291">
        <ele>40.5128</ele>
        <time>2013-04-18T19:26:24Z</time>
      </trkpt>
      <trkpt lat="59.985848" lon="17.7386291">
        <ele>41.9547</ele>
        <time>2013-04-18T19:26:25Z</time>
      </trkpt>
      <trkpt lat="59.9858737" lon="17.7386374">
        <ele>43.3966</ele>
        <time>2013-04-18T19:26:26Z</time>
      </trkpt>
      <trkpt lat="59.9859019" lon="17.7386389">
        <ele>44.8386</ele>
        <time>2013-04-18T19:26:27Z</time>
      </trkpt>
      <trkpt lat="59.9859131" lon="17.7386497">
        <ele>43.8773</ele>
        <time>2013-04-18T19:26:28Z</time>
      </trkpt>
      <trkpt lat="59.9859327" lon="17.7386574">
        <ele>44.358</ele>
        <time>2013-04-18T19:26:29Z</time>
      </trkpt>
      <trkpt lat="59.9859529" lon="17.7386654">
        <ele>44.8386</ele>
        <time>2013-04-18T19:26:30Z</time>
      </trkpt>
      <trkpt lat="59.9859622" lon="17.7386705">
        <ele>44.358</ele>
        <time>2013-04-18T19:26:31Z</time>
      </trkpt>
      <trkpt lat="59.9859718" lon="17.7386779">
        <ele>43.3966</ele>
        <time>2013-04-18T19:26:32Z</time>
      </trkpt>
      <trkpt lat="59.9859998" lon="17.7386839">
        <ele>45.3192</ele>
        <time>2013-04-18T19:26:33Z</time>
      </trkpt>
      <trkpt lat="59.9860246" lon="17.7386896">
        <ele>46.7612</ele>
        <time>2013-04-18T19:26:34Z</time>
      </trkpt>
      <trkpt lat="59.9860269" lon="17.7386976">
        <ele>45.7999</ele>
        <time>2013-04-18T19:26:35Z</time>
      </trkpt>
      <trkpt lat="59.9860302" lon="17.7387047">
        <ele>45.3192</ele>
        <time>2013-04-18T19:26:36Z</time>
      </trkpt>
      <trkpt lat="59.9860459" lon="17.7387105">
        <ele>45.7999</ele>
        <time>2013-04-18T19:26:37Z</time>
      </trkpt>
      <trkpt lat="59.9860618" lon="17.7387201">
        <ele>46.2806</ele>
        <time>2013-04-18T19:26:38Z</time>
      </trkpt>
      <trkpt lat="59.9860617" lon="17.7387327">
        <ele>44.8386</ele>
        <time>2013-04-18T19:26:39Z</time>
      </trkpt>
      <trkpt lat="59.9860629" lon="17.7387493">
        <ele>41.9547</ele>
        <time>2013-04-18T19:26:40Z</time>
      </trkpt>
      <trkpt lat="59.9860844" lon="17.7387616">
        <ele>41.9547</ele>
        <time>2013-04-18T19:26:41Z</time>
      </trkpt>
      <trkpt lat="59.9860956" lon="17.7387716">
        <ele>41.9547</ele>
        <time>2013-04-18T19:26:42Z</time>
      </trkpt>
      <trkpt lat="59.9861182" lon="17.738789">
        <ele>42.916</ele>
        <time>2013-04-18T19:26:43Z</time>
      </trkpt>
      <trkpt lat="59.9861592" lon="17.7387927">
        <ele>45.7999</ele>
        <time>2013-04-18T19:26:44Z</time>
      </trkpt>
      <trkpt lat="59.9861856" lon="17.7387984">
        <ele>46.7612</ele>
        <time>2013-04-18T19:26:45Z</time>
      </trkpt>
      <trkpt lat="59.9862022" lon="17.7388092">
        <ele>46.7612</ele>
        <time>2013-04-18T19:26:46Z</time>
      </trkpt>
      <trkpt lat="59.9862172" lon="17.7388265">
        <ele>47.2418</ele>
        <time>2013-04-18T19:26:47Z</time>
      </trkpt>
      <trkpt lat="59.9862306" lon="17.7388369">
        <ele>46.7612</ele>
        <time>2013-04-18T19:26:48Z</time>
      </trkpt>
      <trkpt lat="59.9862694" lon="17.7388447">
        <ele>50.126</ele>
        <time>2013-04-18T19:26:49Z</time>
      </trkpt>
      <trkpt lat="59.9862971" lon="17.7388705">
        <ele>52.0486</ele>
        <time>2013-04-18T19:26:50Z</time>
      </trkpt>
      <trkpt lat="59.9863263" lon="17.7388894">
        <ele>53.9712</ele>
        <time>2013-04-18T19:26:51Z</time>
      </trkpt>
      <trkpt lat="59.9863394" lon="17.7388995">
        <ele>53.4905</ele>
        <time>2013-04-18T19:26:52Z</time>
      </trkpt>
      <trkpt lat="59.9863434" lon="17.7389084">
        <ele>51.5679</ele>
        <time>2013-04-18T19:26:53Z</time>
      </trkpt>
      <trkpt lat="59.9863532" lon="17.7389125">
        <ele>51.0872</ele>
        <time>2013-04-18T19:26:54Z</time>
      </trkpt>
      <trkpt lat="59.9863668" lon="17.73892">
        <ele>50.6066</ele>
        <time>2013-04-18T19:26:55Z</time>
      </trkpt>
      <trkpt lat="59.9863835" lon="17.7389281">
        <ele>50.126</ele>
        <time>2013-04-18T19:26:56Z</time>
      </trkpt>
      <trkpt lat="59.9863854" lon="17.7389404">
        <ele>48.2034</ele>
        <time>2013-04-18T19:26:57Z</time>
      </trkpt>
      <trkpt lat="59.9863928" lon="17.738954">
        <ele>47.2418</ele>
        <time>2013-04-18T19:26:58Z</time>
      </trkpt>
      <trkpt lat="59.9863917" lon="17.7389766">
        <ele>45.7999</ele>
        <time>2013-04-18T19:26:59Z</time>
      </trkpt>
      <trkpt lat="59.9863968" lon="17.7389885">
        <ele>44.8386</ele>
        <time>2013-04-18T19:27:00Z</time>
      </trkpt>
      <trkpt lat="59.9864151" lon="17.7389931">
        <ele>45.3192</ele>
        <time>2013-04-18T19:27:01Z</time>
      </trkpt>
      <trkpt lat="59.986431" lon="17.7390061">
        <ele>46.2806</ele>
        <time>2013-04-18T19:27:02Z</time>
      </trkpt>
      <trkpt lat="59.9864379" lon="17.7390228">
        <ele>45.7999</ele>
        <time>2013-04-18T19:27:03Z</time>
      </trkpt>
      <trkpt lat="59.9864517" lon="17.7390284">
        <ele>45.7999</ele>
        <time>2013-04-18T19:27:04Z</time>
      </trkpt>
      <trkpt lat="59.9864546" lon="17.7390414">
        <ele>45.3192</ele>
        <time>2013-04-18T19:27:05Z</time>
      </trkpt>
      <trkpt lat="59.9864628" lon="17.7390622">
        <ele>44.8386</ele>
        <time>2013-04-18T19:27:06Z</time>
      </trkpt>
      <trkpt lat="59.9864607" lon="17.7390827">
        <ele>42.916</ele>
        <time>2013-04-18T19:27:07Z</time>
      </trkpt>
      <trkpt lat="59.9864642" lon="17.7391024">
        <ele>42.4354</ele>
        <time>2013-04-18T19:27:08Z</time>
      </trkpt>
      <trkpt lat="59.9864652" lon="17.7391269">
        <ele>40.9934</ele>
        <time>2013-04-18T19:27:09Z</time>
      </trkpt>
      <trkpt lat="59.9864607" lon="17.7391502">
        <ele>39.5513</ele>
        <time>2013-04-18T19:27:10Z</time>
      </trkpt>
      <trkpt lat="59.9864715" lon="17.7391673">
        <ele>39.0707</ele>
        <time>2013-04-18T19:27:11Z</time>
      </trkpt>
      <trkpt lat="59.9864824" lon="17.7391767">
        <ele>38.5901</ele>
        <time>2013-04-18T19:27:12Z</time>
      </trkpt>
      <trkpt lat="59.9864876" lon="17.7391952">
        <ele>37.6287</ele>
        <time>2013-04-18T19:27:13Z</time>
      </trkpt>
      <trkpt lat="59.9865014" lon="17.7392129">
        <ele>37.6287</ele>
        <time>2013-04-18T19:27:14Z</time>
      </trkpt>
      <trkpt lat="59.9865152" lon="17.7392341">
        <ele>37.6287</ele>
        <time>2013-04-18T19:27:15Z</time>
      </trkpt>
      <trkpt lat="59.9865383" lon="17.7392562">
        <ele>38.1094</ele>
        <time>2013-04-18T19:27:16Z</time>
      </trkpt>
      <trkpt lat="59.9865394" lon="17.7392743">
        <ele>37.1481</ele>
        <time>2013-04-18T19:27:17Z</time>
      </trkpt>
      <trkpt lat="59.9865603" lon="17.7392832">
        <ele>37.6287</ele>
        <time>2013-04-18T19:27:18Z</time>
      </trkpt>
      <trkpt lat="59.9865618" lon="17.739305">
        <ele>36.1868</ele>
        <time>2013-04-18T19:27:19Z</time>
      </trkpt>
      <trkpt lat="59.9865556" lon="17.739332">
        <ele>34.7449</ele>
        <time>2013-04-18T19:27:20Z</time>
      </trkpt>
      <trkpt lat="59.9865564" lon="17.7393548">
        <ele>33.7834</ele>
        <time>2013-04-18T19:27:21Z</time>
      </trkpt>
      <trkpt lat="59.9865845" lon="17.7393646">
        <ele>35.2255</ele>
        <time>2013-04-18T19:27:22Z</time>
      </trkpt>
      <trkpt lat="59.9866007" lon="17.7393745">
        <ele>35.2255</ele>
        <time>2013-04-18T19:27:23Z</time>
      </trkpt>
      <trkpt lat="59.9866079" lon="17.7393935">
        <ele>34.7449</ele>
        <time>2013-04-18T19:27:24Z</time>
      </trkpt>
      <trkpt lat="59.9866245" lon="17.73941">
        <ele>34.7449</ele>
        <time>2013-04-18T19:27:25Z</time>
      </trkpt>
      <trkpt lat="59.9866234" lon="17.7394334">
        <ele>33.3029</ele>
        <time>2013-04-18T19:27:26Z</time>
      </trkpt>
      <trkpt lat="59.9866379" lon="17.7394491">
        <ele>33.7834</ele>
        <time>2013-04-18T19:27:27Z</time>
      </trkpt>
      <trkpt lat="59.9866442" lon="17.7394663">
        <ele>32.8223</ele>
        <time>2013-04-18T19:27:28Z</time>
      </trkpt>
      <trkpt lat="59.986648" lon="17.7394834">
        <ele>31.8607</ele>
        <time>2013-04-18T19:27:29Z</time>
      </trkpt>
      <trkpt lat="59.9866485" lon="17.7394983">
        <ele>30.4188</ele>
        <time>2013-04-18T19:27:30Z</time>
      </trkpt>
      <trkpt lat="59.9866542" lon="17.7395057">
        <ele>29.4575</ele>
        <time>2013-04-18T19:27:31Z</time>
      </trkpt>
      <trkpt lat="59.9866612" lon="17.7395169">
        <ele>28.4962</ele>
        <time>2013-04-18T19:27:32Z</time>
      </trkpt>
      <trkpt lat="59.98667" lon="17.7395335">
        <ele>28.0155</ele>
        <time>2013-04-18T19:27:33Z</time>
      </trkpt>
      <trkpt lat="59.9866849" lon="17.7395434">
        <ele>28.4962</ele>
        <time>2013-04-18T19:27:34Z</time>
      </trkpt>
      <trkpt lat="59.9867048" lon="17.7395448">
        <ele>28.4962</ele>
        <time>2013-04-18T19:27:35Z</time>
      </trkpt>
      <trkpt lat="59.9867155" lon="17.7395553">
        <ele>28.0155</ele>
        <time>2013-04-18T19:27:36Z</time>
      </trkpt>
      <trkpt lat="59.9867367" lon="17.7395567">
        <ele>28.9769</ele>
        <time>2013-04-18T19:27:37Z</time>
      </trkpt>
      <trkpt lat="59.9867721" lon="17.7395481">
        <ele>30.8995</ele>
        <time>2013-04-18T19:27:38Z</time>
      </trkpt>
      <trkpt lat="59.9868078" lon="17.7395408">
        <ele>33.3029</ele>
        <time>2013-04-18T19:27:39Z</time>
      </trkpt>
      <trkpt lat="59.9868257" lon="17.739534">
        <ele>33.7834</ele>
        <time>2013-04-18T19:27:40Z</time>
      </trkpt>
      <trkpt lat="59.9868533" lon="17.7395201">
        <ele>35.7061</ele>
        <time>2013-04-18T19:27:41Z</time>
      </trkpt>
      <trkpt lat="59.9868661" lon="17.739524">
        <ele>35.7061</ele>
        <time>2013-04-18T19:27:42Z</time>
      </trkpt>
      <trkpt lat="59.9868927" lon="17.7395211">
        <ele>37.1481</ele>
        <time>2013-04-18T19:27:43Z</time>
      </trkpt>
      <trkpt lat="59.986934" lon="17.7395128">
        <ele>40.0321</ele>
        <time>2013-04-18T19:27:44Z</time>
      </trkpt>
      <trkpt lat="59.9869802" lon="17.7394943">
        <ele>43.8773</ele>
        <time>2013-04-18T19:27:45Z</time>
      </trkpt>
      <trkpt lat="59.9870092" lon="17.7394724">
        <ele>45.3192</ele>
        <time>2013-04-18T19:27:46Z</time>
      </trkpt>
      <trkpt lat="59.9870341" lon="17.7394611">
        <ele>46.7612</ele>
        <time>2013-04-18T19:27:47Z</time>
      </trkpt>
      <trkpt lat="59.9870543" lon="17.7394502">
        <ele>47.2418</ele>
        <time>2013-04-18T19:27:48Z</time>
      </trkpt>
      <trkpt lat="59.9870687" lon="17.7394253">
        <ele>48.2034</ele>
        <time>2013-04-18T19:27:49Z</time>
      </trkpt>
      <trkpt lat="59.9870948" lon="17.7394004">
        <ele>50.6066</ele>
        <time>2013-04-18T19:27:50Z</time>
      </trkpt>
      <trkpt lat="59.9871213" lon="17.7393862">
        <ele>52.0486</ele>
        <time>2013-04-18T19:27:51Z</time>
      </trkpt>
      <trkpt lat="59.9871492" lon="17.7393688">
        <ele>53.9712</ele>
        <time>2013-04-18T19:27:52Z</time>
      </trkpt>
      <trkpt lat="59.987173" lon="17.7393678">
        <ele>54.9324</ele>
        <time>2013-04-18T19:27:53Z</time>
      </trkpt>
      <trkpt lat="59.9871961" lon="17.7393665">
        <ele>55.4131</ele>
        <time>2013-04-18T19:27:54Z</time>
      </trkpt>
      <trkpt lat="59.9872221" lon="17.7393574">
        <ele>56.8551</ele>
        <time>2013-04-18T19:27:55Z</time>
      </trkpt>
      <trkpt lat="59.9872466" lon="17.7393547">
        <ele>58.2971</ele>
        <time>2013-04-18T19:27:56Z</time>
      </trkpt>
      <trkpt lat="59.9872583" lon="17.7393548">
        <ele>57.8165</ele>
        <time>2013-04-18T19:27:57Z</time>
      </trkpt>
      <trkpt lat="59.98729" lon="17.7393507">
        <ele>60.2197</ele>
        <time>2013-04-18T19:27:58Z</time>
      </trkpt>
      <trkpt lat="59.9873205" lon="17.7393449">
        <ele>62.1423</ele>
        <time>2013-04-18T19:27:59Z</time>
      </trkpt>
      <trkpt lat="59.9873549" lon="17.7393368">
        <ele>64.0651</ele>
        <time>2013-04-18T19:28:00Z</time>
      </trkpt>
      <trkpt lat="59.9873677" lon="17.7393396">
        <ele>63.5844</ele>
        <time>2013-04-18T19:28:01Z</time>
      </trkpt>
      <trkpt lat="59.9873994" lon="17.7393398">
        <ele>65.9877</ele>
        <time>2013-04-18T19:28:02Z</time>
      </trkpt>
      <trkpt lat="59.9874267" lon="17.7393347">
        <ele>67.9103</ele>
        <time>2013-04-18T19:28:03Z</time>
      </trkpt>
      <trkpt lat="59.9874418" lon="17.7393206">
        <ele>68.8716</ele>
        <time>2013-04-18T19:28:04Z</time>
      </trkpt>
      <trkpt lat="59.987463" lon="17.7393139">
        <ele>70.3135</ele>
        <time>2013-04-18T19:28:05Z</time>
      </trkpt>
      <trkpt lat="59.9874877" lon="17.7392994">
        <ele>71.7555</ele>
        <time>2013-04-18T19:28:06Z</time>
      </trkpt>
      <trkpt lat="59.9875131" lon="17.7393014">
        <ele>72.7169</ele>
        <time>2013-04-18T19:28:07Z</time>
      </trkpt>
      <trkpt lat="59.9875417" lon="17.7392942">
        <ele>74.6395</ele>
        <time>2013-04-18T19:28:08Z</time>
      </trkpt>
      <trkpt lat="59.9875573" lon="17.7392974">
        <ele>75.1202</ele>
        <time>2013-04-18T19:28:09Z</time>
      </trkpt>
      <trkpt lat="59.9875795" lon="17.7392879">
        <ele>76.0814</ele>
        <time>2013-04-18T19:28:10Z</time>
      </trkpt>
      <trkpt lat="59.9875916" lon="17.739287">
        <ele>76.0814</ele>
        <time>2013-04-18T19:28:11Z</time>
      </trkpt>
      <trkpt lat="59.9875906" lon="17.7393025">
        <ele>74.6395</ele>
        <time>2013-04-18T19:28:12Z</time>
      </trkpt>
      <trkpt lat="59.9876076" lon="17.7392964">
        <ele>75.6008</ele>
        <time>2013-04-18T19:28:13Z</time>
      </trkpt>
      <trkpt lat="59.9876262" lon="17.7393002">
        <ele>76.0814</ele>
        <time>2013-04-18T19:28:14Z</time>
      </trkpt>
      <trkpt lat="59.9876345" lon="17.7393015">
        <ele>74.6395</ele>
        <time>2013-04-18T19:28:15Z</time>
      </trkpt>
      <trkpt lat="59.9876515" lon="17.7393056">
        <ele>74.6395</ele>
        <time>2013-04-18T19:28:16Z</time>
      </trkpt>
      <trkpt lat="59.9876569" lon="17.7393077">
        <ele>73.1976</ele>
        <time>2013-04-18T19:28:17Z</time>
      </trkpt>
      <trkpt lat="59.9876526" lon="17.7393128">
        <ele>70.7942</ele>
        <time>2013-04-18T19:28:18Z</time>
      </trkpt>
      <trkpt lat="59.9876644" lon="17.7393179">
        <ele>70.3135</ele>
        <time>2013-04-18T19:28:19Z</time>
      </trkpt>
      <trkpt lat="59.9876568" lon="17.7393251">
        <ele>67.4297</ele>
        <time>2013-04-18T19:28:20Z</time>
      </trkpt>
      <trkpt lat="59.9876581" lon="17.7393254">
        <ele>65.5071</ele>
        <time>2013-04-18T19:28:21Z</time>
      </trkpt>
      <trkpt lat="59.9876762" lon="17.739322">
        <ele>65.5071</ele>
        <time>2013-04-18T19:28:22Z</time>
      </trkpt>
      <trkpt lat="59.9877082" lon="17.7393145">
        <ele>67.4297</ele>
        <time>2013-04-18T19:28:23Z</time>
      </trkpt>
      <trkpt lat="59.987741" lon="17.7393056">
        <ele>69.3523</ele>
        <time>2013-04-18T19:28:24Z</time>
      </trkpt>
      <trkpt lat="59.9877845" lon="17.7392998">
        <ele>72.2362</ele>
        <time>2013-04-18T19:28:25Z</time>
      </trkpt>
      <trkpt lat="59.9878049" lon="17.7392995">
        <ele>72.2362</ele>
        <time>2013-04-18T19:28:26Z</time>
      </trkpt>
      <trkpt lat="59.987825" lon="17.7392984">
        <ele>72.2362</ele>
        <time>2013-04-18T19:28:27Z</time>
      </trkpt>
      <trkpt lat="59.987836" lon="17.7392949">
        <ele>71.7555</ele>
        <time>2013-04-18T19:28:28Z</time>
      </trkpt>
      <trkpt lat="59.9878571" lon="17.739287">
        <ele>72.2362</ele>
        <time>2013-04-18T19:28:29Z</time>
      </trkpt>
      <trkpt lat="59.9878641" lon="17.7392854">
        <ele>70.7942</ele>
        <time>2013-04-18T19:28:30Z</time>
      </trkpt>
      <trkpt lat="59.9878795" lon="17.7392852">
        <ele>70.7942</ele>
        <time>2013-04-18T19:28:31Z</time>
      </trkpt>
      <trkpt lat="59.98789" lon="17.7392866">
        <ele>70.3135</ele>
        <time>2013-04-18T19:28:32Z</time>
      </trkpt>
      <trkpt lat="59.9879003" lon="17.7392901">
        <ele>69.8329</ele>
        <time>2013-04-18T19:28:33Z</time>
      </trkpt>
      <trkpt lat="59.9879059" lon="17.7392946">
        <ele>69.3523</ele>
        <time>2013-04-18T19:28:34Z</time>
      </trkpt>
      <trkpt lat="59.9879313" lon="17.7392911">
        <ele>70.7942</ele>
        <time>2013-04-18T19:28:35Z</time>
      </trkpt>
      <trkpt lat="59.9879494" lon="17.7392818">
        <ele>70.7942</ele>
        <time>2013-04-18T19:28:36Z</time>
      </trkpt>
      <trkpt lat="59.9879656" lon="17.7392674">
        <ele>70.7942</ele>
        <time>2013-04-18T19:28:37Z</time>
      </trkpt>
      <trkpt lat="59.9879795" lon="17.7392633">
        <ele>70.3135</ele>
        <time>2013-04-18T19:28:38Z</time>
      </trkpt>
      <trkpt lat="59.988" lon="17.7392538">
        <ele>70.7942</ele>
        <time>2013-04-18T19:28:39Z</time>
      </trkpt>
      <trkpt lat="59.9880321" lon="17.7392346">
        <ele>73.1976</ele>
        <time>2013-04-18T19:28:40Z</time>
      </trkpt>
      <trkpt lat="59.9880466" lon="17.7392309">
        <ele>73.1976</ele>
        <time>2013-04-18T19:28:41Z</time>
      </trkpt>
      <trkpt lat="59.9880643" lon="17.73923">
        <ele>73.6782</ele>
        <time>2013-04-18T19:28:42Z</time>
      </trkpt>
      <trkpt lat="59.9880837" lon="17.7392246">
        <ele>74.6395</ele>
        <time>2013-04-18T19:28:43Z</time>
      </trkpt>
      <trkpt lat="59.9880917" lon="17.73922">
        <ele>74.1588</ele>
        <time>2013-04-18T19:28:44Z</time>
      </trkpt>
      <trkpt lat="59.9881028" lon="17.7392191">
        <ele>73.6782</ele>
        <time>2013-04-18T19:28:45Z</time>
      </trkpt>
      <trkpt lat="59.9881167" lon="17.7392191">
        <ele>74.1588</ele>
        <time>2013-04-18T19:28:46Z</time>
      </trkpt>
      <trkpt lat="59.9881324" lon="17.7392111">
        <ele>74.6395</ele>
        <time>2013-04-18T19:28:47Z</time>
      </trkpt>
      <trkpt lat="59.9881411" lon="17.7392128">
        <ele>74.1588</ele>
        <time>2013-04-18T19:28:48Z</time>
      </trkpt>
      <trkpt lat="59.9881608" lon="17.7392042">
        <ele>74.6395</ele>
        <time>2013-04-18T19:28:49Z</time>
      </trkpt>
      <trkpt lat="59.9881861" lon="17.7392045">
        <ele>76.5621</ele>
        <time>2013-04-18T19:28:50Z</time>
      </trkpt>
      <trkpt lat="59.9881985" lon="17.7392056">
        <ele>76.5621</ele>
        <time>2013-04-18T19:28:51Z</time>
      </trkpt>
      <trkpt lat="59.9882063" lon="17.7392025">
        <ele>75.6008</ele>
        <time>2013-04-18T19:28:52Z</time>
      </trkpt>
      <trkpt lat="59.9882224" lon="17.7392036">
        <ele>75.1202</ele>
        <time>2013-04-18T19:28:53Z</time>
      </trkpt>
      <trkpt lat="59.9882425" lon="17.7391941">
        <ele>76.5621</ele>
        <time>2013-04-18T19:28:54Z</time>
      </trkpt>
      <trkpt lat="59.988254" lon="17.7391824">
        <ele>76.0814</ele>
        <time>2013-04-18T19:28:55Z</time>
      </trkpt>
      <trkpt lat="59.9882685" lon="17.7391709">
        <ele>76.0814</ele>
        <time>2013-04-18T19:28:56Z</time>
      </trkpt>
      <trkpt lat="59.9882894" lon="17.7391549">
        <ele>76.5621</ele>
        <time>2013-04-18T19:28:57Z</time>
      </trkpt>
      <trkpt lat="59.9882994" lon="17.7391474">
        <ele>75.6008</ele>
        <time>2013-04-18T19:28:58Z</time>
      </trkpt>
      <trkpt lat="59.9883113" lon="17.7391414">
        <ele>75.1202</ele>
        <time>2013-04-18T19:28:59Z</time>
      </trkpt>
      <trkpt lat="59.9883248" lon="17.7391377">
        <ele>74.6395</ele>
        <time>2013-04-18T19:29:00Z</time>
      </trkpt>
      <trkpt lat="59.988341" lon="17.7391303">
        <ele>74.6395</ele>
        <time>2013-04-18T19:29:01Z</time>
      </trkpt>
      <trkpt lat="59.988354" lon="17.7391296">
        <ele>74.1588</ele>
        <time>2013-04-18T19:29:02Z</time>
      </trkpt>
      <trkpt lat="59.9883701" lon="17.7391202">
        <ele>74.6395</ele>
        <time>2013-04-18T19:29:03Z</time>
      </trkpt>
      <trkpt lat="59.9883886" lon="17.7391153">
        <ele>75.1202</ele>
        <time>2013-04-18T19:29:04Z</time>
      </trkpt>
      <trkpt lat="59.9884068" lon="17.7391092">
        <ele>75.6008</ele>
        <time>2013-04-18T19:29:05Z</time>
      </trkpt>
      <trkpt lat="59.9884183" lon="17.7391099">
        <ele>75.1202</ele>
        <time>2013-04-18T19:29:06Z</time>
      </trkpt>
      <trkpt lat="59.9884322" lon="17.7391034">
        <ele>75.1202</ele>
        <time>2013-04-18T19:29:07Z</time>
      </trkpt>
      <trkpt lat="59.9884523" lon="17.7390957">
        <ele>75.6008</ele>
        <time>2013-04-18T19:29:08Z</time>
      </trkpt>
      <trkpt lat="59.9884691" lon="17.7390948">
        <ele>76.0814</ele>
        <time>2013-04-18T19:29:09Z</time>
      </trkpt>
      <trkpt lat="59.9884823" lon="17.7390916">
        <ele>75.6008</ele>
        <time>2013-04-18T19:29:10Z</time>
      </trkpt>
      <trkpt lat="59.9885064" lon="17.7390854">
        <ele>76.5621</ele>
        <time>2013-04-18T19:29:11Z</time>
      </trkpt>
      <trkpt lat="59.9885229" lon="17.7390818">
        <ele>76.5621</ele>
        <time>2013-04-18T19:29:12Z</time>
      </trkpt>
      <trkpt lat="59.9885388" lon="17.739071">
        <ele>77.0428</ele>
        <time>2013-04-18T19:29:13Z</time>
      </trkpt>
      <trkpt lat="59.9885545" lon="17.7390611">
        <ele>77.5234</ele>
        <time>2013-04-18T19:29:14Z</time>
      </trkpt>
      <trkpt lat="59.9885679" lon="17.7390607">
        <ele>77.0428</ele>
        <time>2013-04-18T19:29:15Z</time>
      </trkpt>
      <trkpt lat="59.9885803" lon="17.7390609">
        <ele>77.0428</ele>
        <time>2013-04-18T19:29:16Z</time>
      </trkpt>
      <trkpt lat="59.988602" lon="17.7390495">
        <ele>78.004</ele>
        <time>2013-04-18T19:29:17Z</time>
      </trkpt>
      <trkpt lat="59.9886176" lon="17.7390467">
        <ele>78.004</ele>
        <time>2013-04-18T19:29:18Z</time>
      </trkpt>
      <trkpt lat="59.9886337" lon="17.7390454">
        <ele>78.4847</ele>
        <time>2013-04-18T19:29:19Z</time>
      </trkpt>
      <trkpt lat="59.9886487" lon="17.7390451">
        <ele>78.4847</ele>
        <time>2013-04-18T19:29:20Z</time>
      </trkpt>
      <trkpt lat="59.9886612" lon="17.7390425">
        <ele>78.4847</ele>
        <time>2013-04-18T19:29:21Z</time>
      </trkpt>
      <trkpt lat="59.988673" lon="17.7390367">
        <ele>78.4847</ele>
        <time>2013-04-18T19:29:22Z</time>
      </trkpt>
      <trkpt lat="59.9886921" lon="17.7390305">
        <ele>78.9655</ele>
        <time>2013-04-18T19:29:23Z</time>
      </trkpt>
      <trkpt lat="59.9887068" lon="17.7390254">
        <ele>78.9655</ele>
        <time>2013-04-18T19:29:24Z</time>
      </trkpt>
      <trkpt lat="59.9887242" lon="17.7390167">
        <ele>79.446</ele>
        <time>2013-04-18T19:29:25Z</time>
      </trkpt>
      <trkpt lat="59.9887413" lon="17.7390015">
        <ele>79.446</ele>
        <time>2013-04-18T19:29:26Z</time>
      </trkpt>
      <trkpt lat="59.9887607" lon="17.7389871">
        <ele>79.9266</ele>
        <time>2013-04-18T19:29:27Z</time>
      </trkpt>
      <trkpt lat="59.9887814" lon="17.7389706">
        <ele>79.9266</ele>
        <time>2013-04-18T19:29:28Z</time>
      </trkpt>
      <trkpt lat="59.9887963" lon="17.7389646">
        <ele>79.9266</ele>
        <time>2013-04-18T19:29:29Z</time>
      </trkpt>
      <trkpt lat="59.9888094" lon="17.7389623">
        <ele>79.9266</ele>
        <time>2013-04-18T19:29:30Z</time>
      </trkpt>
      <trkpt lat="59.9888259" lon="17.7389491">
        <ele>79.9266</ele>
        <time>2013-04-18T19:29:31Z</time>
      </trkpt>
      <trkpt lat="59.9888363" lon="17.7389369">
        <ele>79.446</ele>
        <time>2013-04-18T19:29:32Z</time>
      </trkpt>
      <trkpt lat="59.9888445" lon="17.7389347">
        <ele>78.4847</ele>
        <time>2013-04-18T19:29:33Z</time>
      </trkpt>
      <trkpt lat="59.9888488" lon="17.7389374">
        <ele>77.5234</ele>
        <time>2013-04-18T19:29:34Z</time>
      </trkpt>
      <trkpt lat="59.9888653" lon="17.7389245">
        <ele>78.004</ele>
        <time>2013-04-18T19:29:35Z</time>
      </trkpt>
      <trkpt lat="59.9888817" lon="17.7389114">
        <ele>78.4847</ele>
        <time>2013-04-18T19:29:36Z</time>
      </trkpt>
      <trkpt lat="59.9888917" lon="17.738898">
        <ele>78.004</ele>
        <time>2013-04-18T19:29:37Z</time>
      </trkpt>
      <trkpt lat="59.9888985" lon="17.7388853">
        <ele>77.5234</ele>
        <time>2013-04-18T19:29:38Z</time>
      </trkpt>
      <trkpt lat="59.9889134" lon="17.7388665">
        <ele>77.5234</ele>
        <time>2013-04-18T19:29:39Z</time>
      </trkpt>
      <trkpt lat="59.9889284" lon="17.7388539">
        <ele>77.5234</ele>
        <time>2013-04-18T19:29:40Z</time>
      </trkpt>
      <trkpt lat="59.9889421" lon="17.7388467">
        <ele>77.0428</ele>
        <time>2013-04-18T19:29:41Z</time>
      </trkpt>
      <trkpt lat="59.9889506" lon="17.7388393">
        <ele>76.5621</ele>
        <time>2013-04-18T19:29:42Z</time>
      </trkpt>
      <trkpt lat="59.98896" lon="17.7388372">
        <ele>75.6008</ele>
        <time>2013-04-18T19:29:43Z</time>
      </trkpt>
      <trkpt lat="59.9889705" lon="17.7388363">
        <ele>75.1202</ele>
        <time>2013-04-18T19:29:44Z</time>
      </trkpt>
      <trkpt lat="59.9889839" lon="17.7388353">
        <ele>74.6395</ele>
        <time>2013-04-18T19:29:45Z</time>
      </trkpt>
      <trkpt lat="59.9890103" lon="17.7388233">
        <ele>76.0814</ele>
        <time>2013-04-18T19:29:46Z</time>
      </trkpt>
      <trkpt lat="59.9890438" lon="17.7388061">
        <ele>78.004</ele>
        <time>2013-04-18T19:29:47Z</time>
      </trkpt>
      <trkpt lat="59.9890651" lon="17.7387917">
        <ele>78.4847</ele>
        <time>2013-04-18T19:29:48Z</time>
      </trkpt>
      <trkpt lat="59.9890881" lon="17.7387782">
        <ele>79.446</ele>
        <time>2013-04-18T19:29:49Z</time>
      </trkpt>
      <trkpt lat="59.9891184" lon="17.7387555">
        <ele>81.3688</ele>
        <time>2013-04-18T19:29:50Z</time>
      </trkpt>
      <trkpt lat="59.9891486" lon="17.738738">
        <ele>83.2914</ele>
        <time>2013-04-18T19:29:51Z</time>
      </trkpt>
      <trkpt lat="59.9891619" lon="17.7387227">
        <ele>83.2914</ele>
        <time>2013-04-18T19:29:52Z</time>
      </trkpt>
      <trkpt lat="59.9891755" lon="17.7386986">
        <ele>83.2914</ele>
        <time>2013-04-18T19:29:53Z</time>
      </trkpt>
      <trkpt lat="59.9891911" lon="17.7386792">
        <ele>83.772</ele>
        <time>2013-04-18T19:29:54Z</time>
      </trkpt>
      <trkpt lat="59.9892061" lon="17.738668">
        <ele>84.2527</ele>
        <time>2013-04-18T19:29:55Z</time>
      </trkpt>
      <trkpt lat="59.9892158" lon="17.7386581">
        <ele>84.2527</ele>
        <time>2013-04-18T19:29:56Z</time>
      </trkpt>
      <trkpt lat="59.9892261" lon="17.7386593">
        <ele>83.772</ele>
        <time>2013-04-18T19:29:57Z</time>
      </trkpt>
      <trkpt lat="59.9892387" lon="17.7386601">
        <ele>82.8108</ele>
        <time>2013-04-18T19:29:58Z</time>
      </trkpt>
      <trkpt lat="59.9892573" lon="17.7386476">
        <ele>83.2914</ele>
        <time>2013-04-18T19:29:59Z</time>
      </trkpt>
      <trkpt lat="59.9892694" lon="17.7386348">
        <ele>82.3301</ele>
        <time>2013-04-18T19:30:00Z</time>
      </trkpt>
      <trkpt lat="59.9892761" lon="17.7386296">
        <ele>81.3688</ele>
        <time>2013-04-18T19:30:01Z</time>
      </trkpt>
      <trkpt lat="59.9892894" lon="17.7386161">
        <ele>81.3688</ele>
        <time>2013-04-18T19:30:02Z</time>
      </trkpt>
      <trkpt lat="59.9893033" lon="17.7386012">
        <ele>81.3688</ele>
        <time>2013-04-18T19:30:03Z</time>
      </trkpt>
      <trkpt lat="59.9893223" lon="17.7385844">
        <ele>81.8494</ele>
        <time>2013-04-18T19:30:04Z</time>
      </trkpt>
      <trkpt lat="59.9893408" lon="17.7385676">
        <ele>82.3301</ele>
        <time>2013-04-18T19:30:05Z</time>
      </trkpt>
      <trkpt lat="59.9893574" lon="17.7385587">
        <ele>82.8108</ele>
        <time>2013-04-18T19:30:06Z</time>
      </trkpt>
      <trkpt lat="59.9893698" lon="17.7385508">
        <ele>82.3301</ele>
        <time>2013-04-18T19:30:07Z</time>
      </trkpt>
      <trkpt lat="59.9893858" lon="17.7385393">
        <ele>82.3301</ele>
        <time>2013-04-18T19:30:08Z</time>
      </trkpt>
      <trkpt lat="59.9894121" lon="17.7385296">
        <ele>83.2914</ele>
        <time>2013-04-18T19:30:09Z</time>
      </trkpt>
      <trkpt lat="59.9894253" lon="17.7385184">
        <ele>83.2914</ele>
        <time>2013-04-18T19:30:10Z</time>
      </trkpt>
      <trkpt lat="59.9894354" lon="17.7385085">
        <ele>82.8108</ele>
        <time>2013-04-18T19:30:11Z</time>
      </trkpt>
      <trkpt lat="59.989447" lon="17.7384956">
        <ele>82.8108</ele>
        <time>2013-04-18T19:30:12Z</time>
      </trkpt>
      <trkpt lat="59.9894558" lon="17.7384831">
        <ele>82.3301</ele>
        <time>2013-04-18T19:30:13Z</time>
      </trkpt>
      <trkpt lat="59.9894699" lon="17.7384736">
        <ele>82.3301</ele>
        <time>2013-04-18T19:30:14Z</time>
      </trkpt>
      <trkpt lat="59.9894878" lon="17.7384608">
        <ele>82.8108</ele>
        <time>2013-04-18T19:30:15Z</time>
      </trkpt>
      <trkpt lat="59.9895049" lon="17.7384487">
        <ele>83.2914</ele>
        <time>2013-04-18T19:30:16Z</time>
      </trkpt>
      <trkpt lat="59.9895175" lon="17.7384419">
        <ele>83.2914</ele>
        <time>2013-04-18T19:30:17Z</time>
      </trkpt>
      <trkpt lat="59.989533" lon="17.7384334">
        <ele>83.772</ele>
        <time>2013-04-18T19:30:18Z</time>
      </trkpt>
      <trkpt lat="59.9895439" lon="17.7384241">
        <ele>83.772</ele>
        <time>2013-04-18T19:30:19Z</time>
      </trkpt>
      <trkpt lat="59.9895554" lon="17.7384146">
        <ele>83.772</ele>
        <time>2013-04-18T19:30:20Z</time>
      </trkpt>
      <trkpt lat="59.9895618" lon="17.7384136">
        <ele>82.8108</ele>
        <time>2013-04-18T19:30:21Z</time>
      </trkpt>
      <trkpt lat="59.9895735" lon="17.7384152">
        <ele>82.3301</ele>
        <time>2013-04-18T19:30:22Z</time>
      </trkpt>
      <trkpt lat="59.9895816" lon="17.738403">
        <ele>81.8494</ele>
        <time>2013-04-18T19:30:23Z</time>
      </trkpt>
      <trkpt lat="59.9895915" lon="17.7383898">
        <ele>81.8494</ele>
        <time>2013-04-18T19:30:24Z</time>
      </trkpt>
      <trkpt lat="59.9895921" lon="17.7383856">
        <ele>80.4075</ele>
        <time>2013-04-18T19:30:25Z</time>
      </trkpt>
      <trkpt lat="59.989604" lon="17.7383811">
        <ele>79.9266</ele>
        <time>2013-04-18T19:30:26Z</time>
      </trkpt>
      <trkpt lat="59.9896127" lon="17.7383785">
        <ele>79.446</ele>
        <time>2013-04-18T19:30:27Z</time>
      </trkpt>
      <trkpt lat="59.9896346" lon="17.7383726">
        <ele>80.4075</ele>
        <time>2013-04-18T19:30:28Z</time>
      </trkpt>
      <trkpt lat="59.9896442" lon="17.7383718">
        <ele>79.9266</ele>
        <time>2013-04-18T19:30:29Z</time>
      </trkpt>
      <trkpt lat="59.9896599" lon="17.7383792">
        <ele>80.4075</ele>
        <time>2013-04-18T19:30:30Z</time>
      </trkpt>
      <trkpt lat="59.9896758" lon="17.7383815">
        <ele>80.4075</ele>
        <time>2013-04-18T19:30:31Z</time>
      </trkpt>
      <trkpt lat="59.9896815" lon="17.7383904">
        <ele>79.446</ele>
        <time>2013-04-18T19:30:32Z</time>
      </trkpt>
      <trkpt lat="59.9896945" lon="17.7383916">
        <ele>79.9266</ele>
        <time>2013-04-18T19:30:33Z</time>
      </trkpt>
      <trkpt lat="59.9896991" lon="17.7383906">
        <ele>78.9655</ele>
        <time>2013-04-18T19:30:34Z</time>
      </trkpt>
      <trkpt lat="59.9897184" lon="17.7383889">
        <ele>79.446</ele>
        <time>2013-04-18T19:30:35Z</time>
      </trkpt>
      <trkpt lat="59.989739" lon="17.7383753">
        <ele>80.8882</ele>
        <time>2013-04-18T19:30:36Z</time>
      </trkpt>
      <trkpt lat="59.9897682" lon="17.7383649">
        <ele>82.8108</ele>
        <time>2013-04-18T19:30:37Z</time>
      </trkpt>
      <trkpt lat="59.9897821" lon="17.7383669">
        <ele>82.3301</ele>
        <time>2013-04-18T19:30:38Z</time>
      </trkpt>
      <trkpt lat="59.9897934" lon="17.7383722">
        <ele>81.8494</ele>
        <time>2013-04-18T19:30:39Z</time>
      </trkpt>
      <trkpt lat="59.989802" lon="17.7383683">
        <ele>81.3688</ele>
        <time>2013-04-18T19:30:40Z</time>
      </trkpt>
      <trkpt lat="59.9898195" lon="17.7383549">
        <ele>82.3301</ele>
        <time>2013-04-18T19:30:41Z</time>
      </trkpt>
      <trkpt lat="59.9898271" lon="17.7383525">
        <ele>81.3688</ele>
        <time>2013-04-18T19:30:42Z</time>
      </trkpt>
      <trkpt lat="59.9898377" lon="17.738353">
        <ele>81.3688</ele>
        <time>2013-04-18T19:30:43Z</time>
      </trkpt>
      <trkpt lat="59.9898521" lon="17.7383529">
        <ele>81.3688</ele>
        <time>2013-04-18T19:30:44Z</time>
      </trkpt>
      <trkpt lat="59.9898698" lon="17.7383422">
        <ele>81.8494</ele>
        <time>2013-04-18T19:30:45Z</time>
      </trkpt>
      <trkpt lat="59.989878" lon="17.7383409">
        <ele>80.8882</ele>
        <time>2013-04-18T19:30:46Z</time>
      </trkpt>
      <trkpt lat="59.9898853" lon="17.7383328">
        <ele>79.9266</ele>
        <time>2013-04-18T19:30:47Z</time>
      </trkpt>
      <trkpt lat="59.9898884" lon="17.7383349">
        <ele>78.4847</ele>
        <time>2013-04-18T19:30:48Z</time>
      </trkpt>
      <trkpt lat="59.989892" lon="17.7383398">
        <ele>77.0428</ele>
        <time>2013-04-18T19:30:49Z</time>
      </trkpt>
      <trkpt lat="59.9899019" lon="17.7383421">
        <ele>76.0814</ele>
        <time>2013-04-18T19:30:50Z</time>
      </trkpt>
      <trkpt lat="59.9899089" lon="17.7383419">
        <ele>75.1202</ele>
        <time>2013-04-18T19:30:51Z</time>
      </trkpt>
      <trkpt lat="59.9899127" lon="17.7383535">
        <ele>73.6782</ele>
        <time>2013-04-18T19:30:52Z</time>
      </trkpt>
      <trkpt lat="59.9899338" lon="17.7383554">
        <ele>74.6395</ele>
        <time>2013-04-18T19:30:53Z</time>
      </trkpt>
      <trkpt lat="59.9899485" lon="17.7383484">
        <ele>74.6395</ele>
        <time>2013-04-18T19:30:54Z</time>
      </trkpt>
      <trkpt lat="59.989964" lon="17.7383401">
        <ele>75.1202</ele>
        <time>2013-04-18T19:30:55Z</time>
      </trkpt>
      <trkpt lat="59.9899843" lon="17.7383265">
        <ele>75.6008</ele>
        <time>2013-04-18T19:30:56Z</time>
      </trkpt>
      <trkpt lat="59.9899981" lon="17.7383198">
        <ele>75.1202</ele>
        <time>2013-04-18T19:30:57Z</time>
      </trkpt>
      <trkpt lat="59.9900168" lon="17.7383065">
        <ele>76.0814</ele>
        <time>2013-04-18T19:30:58Z</time>
      </trkpt>
      <trkpt lat="59.9900369" lon="17.7382826">
        <ele>77.0428</ele>
        <time>2013-04-18T19:30:59Z</time>
      </trkpt>
      <trkpt lat="59.9900521" lon="17.738278">
        <ele>77.5234</ele>
        <time>2013-04-18T19:31:00Z</time>
      </trkpt>
      <trkpt lat="59.9900654" lon="17.7382787">
        <ele>77.5234</ele>
        <time>2013-04-18T19:31:01Z</time>
      </trkpt>
      <trkpt lat="59.9900836" lon="17.7382713">
        <ele>78.004</ele>
        <time>2013-04-18T19:31:02Z</time>
      </trkpt>
      <trkpt lat="59.9900992" lon="17.7382731">
        <ele>78.004</ele>
        <time>2013-04-18T19:31:03Z</time>
      </trkpt>
      <trkpt lat="59.9901319" lon="17.7382671">
        <ele>80.4075</ele>
        <time>2013-04-18T19:31:04Z</time>
      </trkpt>
      <trkpt lat="59.9901607" lon="17.7382603">
        <ele>81.8494</ele>
        <time>2013-04-18T19:31:05Z</time>
      </trkpt>
      <trkpt lat="59.9901768" lon="17.7382537">
        <ele>81.8494</ele>
        <time>2013-04-18T19:31:06Z</time>
      </trkpt>
      <trkpt lat="59.9901981" lon="17.738253">
        <ele>82.8108</ele>
        <time>2013-04-18T19:31:07Z</time>
      </trkpt>
      <trkpt lat="59.9902252" lon="17.7382493">
        <ele>83.772</ele>
        <time>2013-04-18T19:31:08Z</time>
      </trkpt>
      <trkpt lat="59.9902349" lon="17.7382463">
        <ele>82.8108</ele>
        <time>2013-04-18T19:31:09Z</time>
      </trkpt>
      <trkpt lat="59.9902399" lon="17.7382426">
        <ele>81.8494</ele>
        <time>2013-04-18T19:31:10Z</time>
      </trkpt>
      <trkpt lat="59.9902468" lon="17.738236">
        <ele>81.3688</ele>
        <time>2013-04-18T19:31:11Z</time>
      </trkpt>
      <trkpt lat="59.9902539" lon="17.7382311">
        <ele>80.4075</ele>
        <time>2013-04-18T19:31:12Z</time>
      </trkpt>
      <trkpt lat="59.9902642" lon="17.7382281">
        <ele>79.446</ele>
        <time>2013-04-18T19:31:13Z</time>
      </trkpt>
      <trkpt lat="59.9902779" lon="17.7382231">
        <ele>78.9655</ele>
        <time>2013-04-18T19:31:14Z</time>
      </trkpt>
      <trkpt lat="59.9902928" lon="17.7382209">
        <ele>78.4847</ele>
        <time>2013-04-18T19:31:15Z</time>
      </trkpt>
      <trkpt lat="59.9903044" lon="17.7382049">
        <ele>78.004</ele>
        <time>2013-04-18T19:31:16Z</time>
      </trkpt>
      <trkpt lat="59.9903217" lon="17.7381959">
        <ele>77.5234</ele>
        <time>2013-04-18T19:31:17Z</time>
      </trkpt>
      <trkpt lat="59.9903322" lon="17.738194">
        <ele>77.0428</ele>
        <time>2013-04-18T19:31:18Z</time>
      </trkpt>
      <trkpt lat="59.9903442" lon="17.7381855">
        <ele>76.5621</ele>
        <time>2013-04-18T19:31:19Z</time>
      </trkpt>
      <trkpt lat="59.9903591" lon="17.738182">
        <ele>76.5621</ele>
        <time>2013-04-18T19:31:20Z</time>
      </trkpt>
      <trkpt lat="59.990372" lon="17.7381835">
        <ele>76.0814</ele>
        <time>2013-04-18T19:31:21Z</time>
      </trkpt>
      <trkpt lat="59.9903922" lon="17.7381772">
        <ele>76.5621</ele>
        <time>2013-04-18T19:31:22Z</time>
      </trkpt>
      <trkpt lat="59.9904084" lon="17.7381668">
        <ele>76.5621</ele>
        <time>2013-04-18T19:31:23Z</time>
      </trkpt>
      <trkpt lat="59.9904217" lon="17.7381596">
        <ele>75.6008</ele>
        <time>2013-04-18T19:31:24Z</time>
      </trkpt>
      <trkpt lat="59.9904353" lon="17.7381489">
        <ele>75.1202</ele>
        <time>2013-04-18T19:31:25Z</time>
      </trkpt>
      <trkpt lat="59.990459" lon="17.7381401">
        <ele>76.0814</ele>
        <time>2013-04-18T19:31:26Z</time>
      </trkpt>
      <trkpt lat="59.9904701" lon="17.7381265">
        <ele>75.6008</ele>
        <time>2013-04-18T19:31:27Z</time>
      </trkpt>
      <trkpt lat="59.9904846" lon="17.7381185">
        <ele>75.6008</ele>
        <time>2013-04-18T19:31:28Z</time>
      </trkpt>
      <trkpt lat="59.9905073" lon="17.7381034">
        <ele>77.0428</ele>
        <time>2013-04-18T19:31:29Z</time>
      </trkpt>
      <trkpt lat="59.9905194" lon="17.7380944">
        <ele>77.0428</ele>
        <time>2013-04-18T19:31:30Z</time>
      </trkpt>
      <trkpt lat="59.9905399" lon="17.7380791">
        <ele>78.004</ele>
        <time>2013-04-18T19:31:31Z</time>
      </trkpt>
      <trkpt lat="59.9905671" lon="17.7380687">
        <ele>79.446</ele>
        <time>2013-04-18T19:31:32Z</time>
      </trkpt>
      <trkpt lat="59.9905804" lon="17.7380601">
        <ele>78.4847</ele>
        <time>2013-04-18T19:31:33Z</time>
      </trkpt>
      <trkpt lat="59.9905903" lon="17.738051">
        <ele>77.5234</ele>
        <time>2013-04-18T19:31:34Z</time>
      </trkpt>
      <trkpt lat="59.990599" lon="17.7380443">
        <ele>76.5621</ele>
        <time>2013-04-18T19:31:35Z</time>
      </trkpt>
      <trkpt lat="59.9906075" lon="17.7380375">
        <ele>75.1202</ele>
        <time>2013-04-18T19:31:36Z</time>
      </trkpt>
      <trkpt lat="59.9906168" lon="17.7380313">
        <ele>74.1588</ele>
        <time>2013-04-18T19:31:37Z</time>
      </trkpt>
      <trkpt lat="59.9906451" lon="17.7380234">
        <ele>75.6008</ele>
        <time>2013-04-18T19:31:38Z</time>
      </trkpt>
      <trkpt lat="59.9906716" lon="17.7380174">
        <ele>77.0428</ele>
        <time>2013-04-18T19:31:39Z</time>
      </trkpt>
      <trkpt lat="59.9906895" lon="17.7380085">
        <ele>77.0428</ele>
        <time>2013-04-18T19:31:40Z</time>
      </trkpt>
      <trkpt lat="59.9907007" lon="17.7380096">
        <ele>76.0814</ele>
        <time>2013-04-18T19:31:41Z</time>
      </trkpt>
      <trkpt lat="59.9907251" lon="17.738009">
        <ele>77.5234</ele>
        <time>2013-04-18T19:31:42Z</time>
      </trkpt>
      <trkpt lat="59.9907421" lon="17.7380026">
        <ele>77.5234</ele>
        <time>2013-04-18T19:31:43Z</time>
      </trkpt>
      <trkpt lat="59.9907525" lon="17.7379774">
        <ele>77.5234</ele>
        <time>2013-04-18T19:31:44Z</time>
      </trkpt>
      <trkpt lat="59.9907673" lon="17.7379623">
        <ele>78.4847</ele>
        <time>2013-04-18T19:31:45Z</time>
      </trkpt>
      <trkpt lat="59.9907865" lon="17.7379511">
        <ele>79.446</ele>
        <time>2013-04-18T19:31:46Z</time>
      </trkpt>
      <trkpt lat="59.9907944" lon="17.7379443">
        <ele>78.4847</ele>
        <time>2013-04-18T19:31:47Z</time>
      </trkpt>
      <trkpt lat="59.9908077" lon="17.7379391">
        <ele>78.4847</ele>
        <time>2013-04-18T19:31:48Z</time>
      </trkpt>
      <trkpt lat="59.990834" lon="17.7379325">
        <ele>79.9266</ele>
        <time>2013-04-18T19:31:49Z</time>
      </trkpt>
      <trkpt lat="59.990861" lon="17.7379132">
        <ele>81.8494</ele>
        <time>2013-04-18T19:31:50Z</time>
      </trkpt>
      <trkpt lat="59.9908752" lon="17.7378987">
        <ele>81.8494</ele>
        <time>2013-04-18T19:31:51Z</time>
      </trkpt>
      <trkpt lat="59.9908877" lon="17.7378909">
        <ele>81.3688</ele>
        <time>2013-04-18T19:31:52Z</time>
      </trkpt>
      <trkpt lat="59.9909006" lon="17.7378827">
        <ele>80.8882</ele>
        <time>2013-04-18T19:31:53Z</time>
      </trkpt>
      <trkpt lat="59.9909161" lon="17.7378656">
        <ele>81.3688</ele>
        <time>2013-04-18T19:31:54Z</time>
      </trkpt>
      <trkpt lat="59.990935" lon="17.73785">
        <ele>82.3301</ele>
        <time>2013-04-18T19:31:55Z</time>
      </trkpt>
      <trkpt lat="59.9909534" lon="17.7378407">
        <ele>82.8108</ele>
        <time>2013-04-18T19:31:56Z</time>
      </trkpt>
      <trkpt lat="59.9909714" lon="17.7378333">
        <ele>83.2914</ele>
        <time>2013-04-18T19:31:57Z</time>
      </trkpt>
      <trkpt lat="59.9909871" lon="17.7378196">
        <ele>84.2527</ele>
        <time>2013-04-18T19:31:58Z</time>
      </trkpt>
      <trkpt lat="59.9910005" lon="17.7378013">
        <ele>84.7334</ele>
        <time>2013-04-18T19:31:59Z</time>
      </trkpt>
      <trkpt lat="59.9910161" lon="17.7377931">
        <ele>85.214</ele>
        <time>2013-04-18T19:32:00Z</time>
      </trkpt>
      <trkpt lat="59.9910275" lon="17.737788">
        <ele>84.7334</ele>
        <time>2013-04-18T19:32:01Z</time>
      </trkpt>
      <trkpt lat="59.9910435" lon="17.737781">
        <ele>84.7334</ele>
        <time>2013-04-18T19:32:02Z</time>
      </trkpt>
      <trkpt lat="59.9910573" lon="17.7377783">
        <ele>84.7334</ele>
        <time>2013-04-18T19:32:03Z</time>
      </trkpt>
      <trkpt lat="59.9910673" lon="17.7377874">
        <ele>83.772</ele>
        <time>2013-04-18T19:32:04Z</time>
      </trkpt>
      <trkpt lat="59.9910803" lon="17.7377954">
        <ele>83.2914</ele>
        <time>2013-04-18T19:32:05Z</time>
      </trkpt>
      <trkpt lat="59.9910944" lon="17.7377942">
        <ele>83.2914</ele>
        <time>2013-04-18T19:32:06Z</time>
      </trkpt>
      <trkpt lat="59.9911133" lon="17.7377884">
        <ele>83.772</ele>
        <time>2013-04-18T19:32:07Z</time>
      </trkpt>
      <trkpt lat="59.9911346" lon="17.7377687">
        <ele>84.2527</ele>
        <time>2013-04-18T19:32:08Z</time>
      </trkpt>
      <trkpt lat="59.991158" lon="17.7377719">
        <ele>84.2527</ele>
        <time>2013-04-18T19:32:09Z</time>
      </trkpt>
      <trkpt lat="59.9911816" lon="17.7377609">
        <ele>85.214</ele>
        <time>2013-04-18T19:32:10Z</time>
      </trkpt>
      <trkpt lat="59.9911967" lon="17.7377398">
        <ele>85.214</ele>
        <time>2013-04-18T19:32:11Z</time>
      </trkpt>
      <trkpt lat="59.9912119" lon="17.7377278">
        <ele>85.214</ele>
        <time>2013-04-18T19:32:12Z</time>
      </trkpt>
      <trkpt lat="59.9912277" lon="17.7377221">
        <ele>85.6946</ele>
        <time>2013-04-18T19:32:13Z</time>
      </trkpt>
      <trkpt lat="59.9912481" lon="17.7377105">
        <ele>86.656</ele>
        <time>2013-04-18T19:32:14Z</time>
      </trkpt>
      <trkpt lat="59.9912642" lon="17.7376966">
        <ele>86.656</ele>
        <time>2013-04-18T19:32:15Z</time>
      </trkpt>
      <trkpt lat="59.991287" lon="17.7376766">
        <ele>87.6172</ele>
        <time>2013-04-18T19:32:16Z</time>
      </trkpt>
      <trkpt lat="59.991299" lon="17.7376778">
        <ele>87.1366</ele>
        <time>2013-04-18T19:32:17Z</time>
      </trkpt>
      <trkpt lat="59.9913199" lon="17.7376642">
        <ele>88.5787</ele>
        <time>2013-04-18T19:32:18Z</time>
      </trkpt>
      <trkpt lat="59.9913393" lon="17.7376433">
        <ele>89.0593</ele>
        <time>2013-04-18T19:32:19Z</time>
      </trkpt>
      <trkpt lat="59.9913601" lon="17.7376217">
        <ele>90.0206</ele>
        <time>2013-04-18T19:32:20Z</time>
      </trkpt>
      <trkpt lat="59.99138" lon="17.7376079">
        <ele>90.9819</ele>
        <time>2013-04-18T19:32:21Z</time>
      </trkpt>
      <trkpt lat="59.9913964" lon="17.7375955">
        <ele>91.4625</ele>
        <time>2013-04-18T19:32:22Z</time>
      </trkpt>
      <trkpt lat="59.9914051" lon="17.7375905">
        <ele>90.9819</ele>
        <time>2013-04-18T19:32:23Z</time>
      </trkpt>
      <trkpt lat="59.9914174" lon="17.7375835">
        <ele>91.4625</ele>
        <time>2013-04-18T19:32:24Z</time>
      </trkpt>
      <trkpt lat="59.9914243" lon="17.737582">
        <ele>90.9819</ele>
        <time>2013-04-18T19:32:25Z</time>
      </trkpt>
      <trkpt lat="59.9914394" lon="17.7375765">
        <ele>91.9432</ele>
        <time>2013-04-18T19:32:26Z</time>
      </trkpt>
      <trkpt lat="59.9914546" lon="17.7375725">
        <ele>91.9432</ele>
        <time>2013-04-18T19:32:27Z</time>
      </trkpt>
      <trkpt lat="59.9914684" lon="17.7375718">
        <ele>91.4625</ele>
        <time>2013-04-18T19:32:28Z</time>
      </trkpt>
      <trkpt lat="59.9914895" lon="17.7375636">
        <ele>91.9432</ele>
        <time>2013-04-18T19:32:29Z</time>
      </trkpt>
      <trkpt lat="59.9914987" lon="17.7375635">
        <ele>90.5013</ele>
        <time>2013-04-18T19:32:30Z</time>
      </trkpt>
      <trkpt lat="59.9915106" lon="17.7375635">
        <ele>90.0206</ele>
        <time>2013-04-18T19:32:31Z</time>
      </trkpt>
      <trkpt lat="59.9915211" lon="17.7375546">
        <ele>89.5399</ele>
        <time>2013-04-18T19:32:32Z</time>
      </trkpt>
      <trkpt lat="59.9915362" lon="17.7375335">
        <ele>90.0206</ele>
        <time>2013-04-18T19:32:33Z</time>
      </trkpt>
      <trkpt lat="59.9915482" lon="17.7375245">
        <ele>90.0206</ele>
        <time>2013-04-18T19:32:34Z</time>
      </trkpt>
      <trkpt lat="59.9915681" lon="17.7375212">
        <ele>90.5013</ele>
        <time>2013-04-18T19:32:35Z</time>
      </trkpt>
      <trkpt lat="59.991573" lon="17.7375164">
        <ele>89.5399</ele>
        <time>2013-04-18T19:32:36Z</time>
      </trkpt>
      <trkpt lat="59.9915807" lon="17.737519">
        <ele>88.5787</ele>
        <time>2013-04-18T19:32:37Z</time>
      </trkpt>
      <trkpt lat="59.9915833" lon="17.7375314">
        <ele>87.1366</ele>
        <time>2013-04-18T19:32:38Z</time>
      </trkpt>
      <trkpt lat="59.9915848" lon="17.7375375">
        <ele>85.6946</ele>
        <time>2013-04-18T19:32:39Z</time>
      </trkpt>
      <trkpt lat="59.9915908" lon="17.7375372">
        <ele>84.2527</ele>
        <time>2013-04-18T19:32:40Z</time>
      </trkpt>
      <trkpt lat="59.9916083" lon="17.7375369">
        <ele>84.2527</ele>
        <time>2013-04-18T19:32:41Z</time>
      </trkpt>
      <trkpt lat="59.9916183" lon="17.7375417">
        <ele>83.2914</ele>
        <time>2013-04-18T19:32:42Z</time>
      </trkpt>
      <trkpt lat="59.9916278" lon="17.7375385">
        <ele>81.8494</ele>
        <time>2013-04-18T19:32:43Z</time>
      </trkpt>
      <trkpt lat="59.9916456" lon="17.7375346">
        <ele>81.8494</ele>
        <time>2013-04-18T19:32:44Z</time>
      </trkpt>
      <trkpt lat="59.991659" lon="17.7375304">
        <ele>81.3688</ele>
        <time>2013-04-18T19:32:45Z</time>
      </trkpt>
      <trkpt lat="59.9916697" lon="17.737529">
        <ele>81.3688</ele>
        <time>2013-04-18T19:32:46Z</time>
      </trkpt>
      <trkpt lat="59.9916865" lon="17.7375169">
        <ele>81.3688</ele>
        <time>2013-04-18T19:32:47Z</time>
      </trkpt>
      <trkpt lat="59.9916971" lon="17.7375165">
        <ele>81.3688</ele>
        <time>2013-04-18T19:32:48Z</time>
      </trkpt>
      <trkpt lat="59.9917043" lon="17.7375211">
        <ele>80.4075</ele>
        <time>2013-04-18T19:32:49Z</time>
      </trkpt>
      <trkpt lat="59.9917164" lon="17.7375248">
        <ele>81.3688</ele>
        <time>2013-04-18T19:32:50Z</time>
      </trkpt>
      <trkpt lat="59.9917288" lon="17.73753">
        <ele>81.3688</ele>
        <time>2013-04-18T19:32:51Z</time>
      </trkpt>
      <trkpt lat="59.9917333" lon="17.7375403">
        <ele>80.8882</ele>
        <time>2013-04-18T19:32:52Z</time>
      </trkpt>
      <trkpt lat="59.9917352" lon="17.7375429">
        <ele>79.9266</ele>
        <time>2013-04-18T19:32:53Z</time>
      </trkpt>
      <trkpt lat="59.9917542" lon="17.7375393">
        <ele>80.8882</ele>
        <time>2013-04-18T19:32:54Z</time>
      </trkpt>
      <trkpt lat="59.9917625" lon="17.7375397">
        <ele>80.4075</ele>
        <time>2013-04-18T19:32:55Z</time>
      </trkpt>
      <trkpt lat="59.9917688" lon="17.7375397">
        <ele>79.446</ele>
        <time>2013-04-18T19:32:56Z</time>
      </trkpt>
      <trkpt lat="59.99178" lon="17.7375509">
        <ele>79.446</ele>
        <time>2013-04-18T19:32:57Z</time>
      </trkpt>
      <trkpt lat="59.9917977" lon="17.7375628">
        <ele>79.9266</ele>
        <time>2013-04-18T19:32:58Z</time>
      </trkpt>
      <trkpt lat="59.9918075" lon="17.737568">
        <ele>79.9266</ele>
        <time>2013-04-18T19:32:59Z</time>
      </trkpt>
      <trkpt lat="59.9918221" lon="17.7375686">
        <ele>79.9266</ele>
        <time>2013-04-18T19:33:00Z</time>
      </trkpt>
      <trkpt lat="59.9918424" lon="17.7375662">
        <ele>80.8882</ele>
        <time>2013-04-18T19:33:01Z</time>
      </trkpt>
      <trkpt lat="59.9918511" lon="17.7375662">
        <ele>79.9266</ele>
        <time>2013-04-18T19:33:02Z</time>
      </trkpt>
      <trkpt lat="59.9918594" lon="17.7375711">
        <ele>79.446</ele>
        <time>2013-04-18T19:33:03Z</time>
      </trkpt>
      <trkpt lat="59.9918695" lon="17.7375733">
        <ele>78.9655</ele>
        <time>2013-04-18T19:33:04Z</time>
      </trkpt>
      <trkpt lat="59.9918781" lon="17.7375756">
        <ele>78.4847</ele>
        <time>2013-04-18T19:33:05Z</time>
      </trkpt>
      <trkpt lat="59.9918874" lon="17.7375675">
        <ele>78.9655</ele>
        <time>2013-04-18T19:33:06Z</time>
      </trkpt>
      <trkpt lat="59.9918898" lon="17.7375683">
        <ele>77.5234</ele>
        <time>2013-04-18T19:33:07Z</time>
      </trkpt>
      <trkpt lat="59.9919046" lon="17.7375625">
        <ele>78.004</ele>
        <time>2013-04-18T19:33:08Z</time>
      </trkpt>
      <trkpt lat="59.9919194" lon="17.7375685">
        <ele>77.5234</ele>
        <time>2013-04-18T19:33:09Z</time>
      </trkpt>
      <trkpt lat="59.9919366" lon="17.7375693">
        <ele>77.5234</ele>
        <time>2013-04-18T19:33:10Z</time>
      </trkpt>
      <trkpt lat="59.9919506" lon="17.7375625">
        <ele>77.0428</ele>
        <time>2013-04-18T19:33:11Z</time>
      </trkpt>
      <trkpt lat="59.9919609" lon="17.7375525">
        <ele>77.0428</ele>
        <time>2013-04-18T19:33:12Z</time>
      </trkpt>
      <trkpt lat="59.9919651" lon="17.7375604">
        <ele>75.1202</ele>
        <time>2013-04-18T19:33:13Z</time>
      </trkpt>
      <trkpt lat="59.991969" lon="17.7375654">
        <ele>73.1976</ele>
        <time>2013-04-18T19:33:14Z</time>
      </trkpt>
      <trkpt lat="59.9919749" lon="17.737577">
        <ele>71.7555</ele>
        <time>2013-04-18T19:33:15Z</time>
      </trkpt>
      <trkpt lat="59.991989" lon="17.7375806">
        <ele>71.2749</ele>
        <time>2013-04-18T19:33:16Z</time>
      </trkpt>
      <trkpt lat="59.9919956" lon="17.7375827">
        <ele>69.8329</ele>
        <time>2013-04-18T19:33:17Z</time>
      </trkpt>
      <trkpt lat="59.9920064" lon="17.7375844">
        <ele>68.3909</ele>
        <time>2013-04-18T19:33:18Z</time>
      </trkpt>
      <trkpt lat="59.9920094" lon="17.7375913">
        <ele>66.4683</ele>
        <time>2013-04-18T19:33:19Z</time>
      </trkpt>
      <trkpt lat="59.99202" lon="17.737587">
        <ele>65.5071</ele>
        <time>2013-04-18T19:33:20Z</time>
      </trkpt>
      <trkpt lat="59.9920246" lon="17.7375851">
        <ele>64.0651</ele>
        <time>2013-04-18T19:33:21Z</time>
      </trkpt>
      <trkpt lat="59.9920391" lon="17.7375769">
        <ele>64.0651</ele>
        <time>2013-04-18T19:33:22Z</time>
      </trkpt>
      <trkpt lat="59.9920459" lon="17.7375685">
        <ele>62.6229</ele>
        <time>2013-04-18T19:33:23Z</time>
      </trkpt>
      <trkpt lat="59.9920654" lon="17.737565">
        <ele>63.1036</ele>
        <time>2013-04-18T19:33:24Z</time>
      </trkpt>
      <trkpt lat="59.9920749" lon="17.7375597">
        <ele>62.6229</ele>
        <time>2013-04-18T19:33:25Z</time>
      </trkpt>
      <trkpt lat="59.9921013" lon="17.7375496">
        <ele>64.5457</ele>
        <time>2013-04-18T19:33:26Z</time>
      </trkpt>
      <trkpt lat="59.9921128" lon="17.7375449">
        <ele>64.0651</ele>
        <time>2013-04-18T19:33:27Z</time>
      </trkpt>
      <trkpt lat="59.9921225" lon="17.7375427">
        <ele>63.5844</ele>
        <time>2013-04-18T19:33:28Z</time>
      </trkpt>
      <trkpt lat="59.9921329" lon="17.737538">
        <ele>64.0651</ele>
        <time>2013-04-18T19:33:29Z</time>
      </trkpt>
      <trkpt lat="59.9921645" lon="17.7375173">
        <ele>65.9877</ele>
        <time>2013-04-18T19:33:30Z</time>
      </trkpt>
      <trkpt lat="59.9921846" lon="17.7375103">
        <ele>66.949</ele>
        <time>2013-04-18T19:33:31Z</time>
      </trkpt>
      <trkpt lat="59.992209" lon="17.7374974">
        <ele>67.4297</ele>
        <time>2013-04-18T19:33:32Z</time>
      </trkpt>
      <trkpt lat="59.9922296" lon="17.7374955">
        <ele>68.3909</ele>
        <time>2013-04-18T19:33:33Z</time>
      </trkpt>
      <trkpt lat="59.9922515" lon="17.7374843">
        <ele>69.8329</ele>
        <time>2013-04-18T19:33:34Z</time>
      </trkpt>
      <trkpt lat="59.9922705" lon="17.7374696">
        <ele>70.3135</ele>
        <time>2013-04-18T19:33:35Z</time>
      </trkpt>
      <trkpt lat="59.992285" lon="17.7374557">
        <ele>70.3135</ele>
        <time>2013-04-18T19:33:36Z</time>
      </trkpt>
      <trkpt lat="59.9923073" lon="17.7374437">
        <ele>71.2749</ele>
        <time>2013-04-18T19:33:37Z</time>
      </trkpt>
      <trkpt lat="59.9923285" lon="17.7374342">
        <ele>70.7942</ele>
        <time>2013-04-18T19:33:38Z</time>
      </trkpt>
    </trkseg>
  </trk>
</gpx>